PWSweather.com
Personal Weather Stations
Station Observations
KILASHKU1
Ashkum, IL

Ashkum, IL

Lat: 40.8779862, Lon: -87.846552

Elevation: 626

Station Type: Davis Vantage Pro 2

Latest ConditionsUpdated 2:52:00 PM CST Sunday, Nov 17, 2019
Currently Today's Max Today's Min Today's Average
Temperature 38.0°F3.3°C 38.2°F3.4°C 23.1°F-4.9°C 30.2°F-1.0°C
Dew Point 35.9°F2.2°C 35.9°F2.2°C 21.6°F-5.8°C 28.0°F-2.2°C
Winds Calm Calm 4.0 mph -6.4 kmh - - 1.0 mph 1.6 kmh
Wind Gusts 1.0 mph1.6 kmh 10.0 mph16.1 kmh - -
Humidity 92% 95% 86% 92%
Pressure 29.97 in1014.9 mb 30.25 in1024.4 mb 29.95 in1014.2 mb -
Hour Temp Dew Point Humidity Winds Wind Gusts Pressure Precip Precip Rate Daily Precip Total
02:52 PM 38.0°F3.3°C 35.9°F2.2°C 92% Calm Calm 1.0 mph1.6 kmh 29.97 in1014.9 mb 0.00 in0.0 mm 0.00 in0.0 mm 0.00 in0.0 mm
02:50 PM 38.0°F3.3°C 35.9°F2.2°C 92% Calm Calm 1.0 mph1.6 kmh 29.97 in1014.9 mb 0.00 in0.0 mm 0.00 in0.0 mm 0.00 in0.0 mm
02:48 PM 38.0°F3.3°C 35.6°F2.0°C 91% Calm Calm 1.0 mph1.6 kmh 29.97 in1014.9 mb 0.00 in0.0 mm 0.00 in0.0 mm 0.00 in0.0 mm
02:46 PM 37.9°F3.3°C 35.5°F1.9°C 91% Calm Calm 2.0 mph3.2 kmh 29.97 in1014.9 mb 0.00 in0.0 mm 0.00 in0.0 mm 0.00 in0.0 mm
02:44 PM 37.9°F3.3°C 35.5°F1.9°C 91% 1.0 mph S1.6 kmh S 3.0 mph4.8 kmh 29.98 in1015.2 mb 0.00 in0.0 mm 0.00 in0.0 mm 0.00 in0.0 mm
02:42 PM 37.8°F3.2°C 35.4°F1.9°C 91% 1.0 mph S1.6 kmh S 3.0 mph4.8 kmh 29.98 in1015.2 mb 0.00 in0.0 mm 0.00 in0.0 mm 0.00 in0.0 mm
02:40 PM 37.8°F3.2°C 35.4°F1.9°C 91% 1.0 mph S1.6 kmh S 3.0 mph4.8 kmh 29.98 in1015.2 mb 0.00 in0.0 mm 0.00 in0.0 mm 0.00 in0.0 mm
02:38 PM 37.8°F3.2°C 35.4°F1.9°C 91% 1.0 mph S1.6 kmh S 3.0 mph4.8 kmh 29.98 in1015.2 mb 0.00 in0.0 mm 0.00 in0.0 mm 0.00 in0.0 mm
02:36 PM 37.8°F3.2°C 35.4°F1.9°C 91% 1.0 mph S1.6 kmh S 3.0 mph4.8 kmh 29.98 in1015.2 mb 0.00 in0.0 mm 0.00 in0.0 mm 0.00 in0.0 mm
02:34 PM 37.7°F3.2°C 35.3°F1.8°C 91% 1.0 mph S1.6 kmh S 3.0 mph4.8 kmh 29.98 in1015.2 mb 0.00 in0.0 mm 0.00 in0.0 mm 0.00 in0.0 mm
02:32 PM 37.7°F3.2°C 35.3°F1.8°C 91% 1.0 mph S1.6 kmh S 3.0 mph4.8 kmh 29.98 in1015.2 mb 0.00 in0.0 mm 0.00 in0.0 mm 0.00 in0.0 mm
02:30 PM 37.7°F3.2°C 35.3°F1.8°C 91% 1.0 mph S1.6 kmh S 3.0 mph4.8 kmh 29.98 in1015.2 mb 0.00 in0.0 mm 0.00 in0.0 mm 0.00 in0.0 mm
02:28 PM 37.7°F3.2°C 35.3°F1.8°C 91% 1.0 mph S1.6 kmh S 3.0 mph4.8 kmh 29.98 in1015.2 mb 0.00 in0.0 mm 0.00 in0.0 mm 0.00 in0.0 mm
02:26 PM 37.7°F3.2°C 35.3°F1.8°C 91% Calm Calm 3.0 mph4.8 kmh 29.98 in1015.2 mb 0.00 in0.0 mm 0.00 in0.0 mm 0.00 in0.0 mm
02:24 PM 37.7°F3.2°C 35.3°F1.8°C 91% Calm Calm 3.0 mph4.8 kmh 29.98 in1015.2 mb 0.00 in0.0 mm 0.00 in0.0 mm 0.00 in0.0 mm
02:22 PM 37.7°F3.2°C 35.3°F1.8°C 91% Calm Calm 2.0 mph3.2 kmh 29.97 in1014.9 mb 0.00 in0.0 mm 0.00 in0.0 mm 0.00 in0.0 mm
02:20 PM 37.7°F3.2°C 35.3°F1.8°C 91% Calm Calm 2.0 mph3.2 kmh 29.97 in1014.9 mb 0.00 in0.0 mm 0.00 in0.0 mm 0.00 in0.0 mm
02:18 PM 37.8°F3.2°C 35.4°F1.9°C 91% 1.0 mph S1.6 kmh S 2.0 mph3.2 kmh 29.96 in1014.6 mb 0.00 in0.0 mm 0.00 in0.0 mm 0.00 in0.0 mm
02:16 PM 37.8°F3.2°C 35.4°F1.9°C 91% 1.0 mph S1.6 kmh S 3.0 mph4.8 kmh 29.96 in1014.6 mb 0.00 in0.0 mm 0.00 in0.0 mm 0.00 in0.0 mm
02:14 PM 37.8°F3.2°C 35.4°F1.9°C 91% 1.0 mph S1.6 kmh S 3.0 mph4.8 kmh 29.96 in1014.6 mb 0.00 in0.0 mm 0.00 in0.0 mm 0.00 in0.0 mm
02:12 PM 37.8°F3.2°C 35.4°F1.9°C 91% 1.0 mph S1.6 kmh S 3.0 mph4.8 kmh 29.96 in1014.6 mb 0.00 in0.0 mm 0.00 in0.0 mm 0.00 in0.0 mm
02:10 PM 37.8°F3.2°C 35.1°F1.7°C 90% 2.0 mph S3.2 kmh S 4.0 mph6.4 kmh 29.96 in1014.6 mb 0.00 in0.0 mm 0.00 in0.0 mm 0.00 in0.0 mm
02:08 PM 37.8°F3.2°C 35.1°F1.7°C 90% 2.0 mph S3.2 kmh S 4.0 mph6.4 kmh 29.96 in1014.6 mb 0.00 in0.0 mm 0.00 in0.0 mm 0.00 in0.0 mm
02:06 PM 37.8°F3.2°C 35.1°F1.7°C 90% 2.0 mph S3.2 kmh S 4.0 mph6.4 kmh 29.96 in1014.6 mb 0.00 in0.0 mm 0.00 in0.0 mm 0.00 in0.0 mm
02:04 PM 37.8°F3.2°C 35.1°F1.7°C 90% 2.0 mph S3.2 kmh S 4.0 mph6.4 kmh 29.95 in1014.2 mb 0.00 in0.0 mm 0.00 in0.0 mm 0.00 in0.0 mm
02:02 PM 37.9°F3.3°C 35.2°F1.8°C 90% 1.0 mph S1.6 kmh S 4.0 mph6.4 kmh 29.95 in1014.2 mb 0.00 in0.0 mm 0.00 in0.0 mm 0.00 in0.0 mm
02:00 PM 37.9°F3.3°C 35.2°F1.8°C 90% 1.0 mph S1.6 kmh S 3.0 mph4.8 kmh 29.96 in1014.6 mb 0.00 in0.0 mm 0.00 in0.0 mm 0.00 in0.0 mm
01:58 PM 38.0°F3.3°C 35.3°F1.8°C 90% 1.0 mph S1.6 kmh S 3.0 mph4.8 kmh 29.96 in1014.6 mb 0.00 in0.0 mm 0.00 in0.0 mm 0.00 in0.0 mm
01:56 PM 38.0°F3.3°C 35.0°F1.7°C 89% 1.0 mph S1.6 kmh S 2.0 mph3.2 kmh 29.96 in1014.6 mb 0.00 in0.0 mm 0.00 in0.0 mm 0.00 in0.0 mm
01:54 PM 38.0°F3.3°C 35.0°F1.7°C 89% 1.0 mph S1.6 kmh S 2.0 mph3.2 kmh 29.96 in1014.6 mb 0.00 in0.0 mm 0.00 in0.0 mm 0.00 in0.0 mm
01:52 PM 38.1°F3.4°C 35.1°F1.7°C 89% 1.0 mph S1.6 kmh S 3.0 mph4.8 kmh 29.97 in1014.9 mb 0.00 in0.0 mm 0.00 in0.0 mm 0.00 in0.0 mm
01:50 PM 38.1°F3.4°C 35.1°F1.7°C 89% 1.0 mph S1.6 kmh S 3.0 mph4.8 kmh 29.96 in1014.6 mb 0.00 in0.0 mm 0.00 in0.0 mm 0.00 in0.0 mm
01:48 PM 38.1°F3.4°C 35.1°F1.7°C 89% 2.0 mph S3.2 kmh S 3.0 mph4.8 kmh 29.96 in1014.6 mb 0.00 in0.0 mm 0.00 in0.0 mm 0.00 in0.0 mm
01:46 PM 38.1°F3.4°C 35.1°F1.7°C 89% 2.0 mph S3.2 kmh S 3.0 mph4.8 kmh 29.96 in1014.6 mb 0.00 in0.0 mm 0.00 in0.0 mm 0.00 in0.0 mm
01:44 PM 38.2°F3.4°C 35.2°F1.8°C 89% 2.0 mph S3.2 kmh S 3.0 mph4.8 kmh 29.97 in1014.9 mb 0.00 in0.0 mm 0.00 in0.0 mm 0.00 in0.0 mm
01:42 PM 38.1°F3.4°C 34.9°F1.6°C 88% 2.0 mph S3.2 kmh S 4.0 mph6.4 kmh 29.97 in1014.9 mb 0.00 in0.0 mm 0.00 in0.0 mm 0.00 in0.0 mm
01:40 PM 38.1°F3.4°C 34.9°F1.6°C 88% 2.0 mph S3.2 kmh S 4.0 mph6.4 kmh 29.97 in1014.9 mb 0.00 in0.0 mm 0.00 in0.0 mm 0.00 in0.0 mm
01:38 PM 38.1°F3.4°C 34.9°F1.6°C 88% 1.0 mph S1.6 kmh S 4.0 mph6.4 kmh 29.98 in1015.2 mb 0.00 in0.0 mm 0.00 in0.0 mm 0.00 in0.0 mm
01:36 PM 38.1°F3.4°C 34.9°F1.6°C 88% 1.0 mph S1.6 kmh S 4.0 mph6.4 kmh 29.98 in1015.2 mb 0.00 in0.0 mm 0.00 in0.0 mm 0.00 in0.0 mm
01:34 PM 38.1°F3.4°C 34.6°F1.4°C 87% 1.0 mph S1.6 kmh S 4.0 mph6.4 kmh 29.98 in1015.2 mb 0.00 in0.0 mm 0.00 in0.0 mm 0.00 in0.0 mm
01:32 PM 38.1°F3.4°C 34.6°F1.4°C 87% 1.0 mph SE1.6 kmh SE 4.0 mph6.4 kmh 29.98 in1015.2 mb 0.00 in0.0 mm 0.00 in0.0 mm 0.00 in0.0 mm
01:30 PM 38.1°F3.4°C 34.6°F1.4°C 87% 1.0 mph SE1.6 kmh SE 3.0 mph4.8 kmh 29.98 in1015.2 mb 0.00 in0.0 mm 0.00 in0.0 mm 0.00 in0.0 mm
01:28 PM 38.1°F3.4°C 34.6°F1.4°C 87% 1.0 mph SE1.6 kmh SE 3.0 mph4.8 kmh 29.98 in1015.2 mb 0.00 in0.0 mm 0.00 in0.0 mm 0.00 in0.0 mm
01:26 PM 38.0°F3.3°C 34.5°F1.4°C 87% 1.0 mph SE1.6 kmh SE 3.0 mph4.8 kmh 29.98 in1015.2 mb 0.00 in0.0 mm 0.00 in0.0 mm 0.00 in0.0 mm
01:24 PM 38.1°F3.4°C 34.6°F1.4°C 87% 1.0 mph SE1.6 kmh SE 6.0 mph9.7 kmh 29.98 in1015.2 mb 0.00 in0.0 mm 0.00 in0.0 mm 0.00 in0.0 mm
01:22 PM 38.1°F3.4°C 34.6°F1.4°C 87% 1.0 mph SE1.6 kmh SE 6.0 mph9.7 kmh 29.98 in1015.2 mb 0.00 in0.0 mm 0.00 in0.0 mm 0.00 in0.0 mm
01:20 PM 38.1°F3.4°C 34.6°F1.4°C 87% 1.0 mph SSE1.6 kmh SSE 6.0 mph9.7 kmh 29.98 in1015.2 mb 0.00 in0.0 mm 0.00 in0.0 mm 0.00 in0.0 mm
01:18 PM 38.1°F3.4°C 34.6°F1.4°C 87% 2.0 mph S3.2 kmh S 6.0 mph9.7 kmh 29.99 in1015.6 mb 0.00 in0.0 mm 0.00 in0.0 mm 0.00 in0.0 mm
01:16 PM 38.1°F3.4°C 34.6°F1.4°C 87% 2.0 mph S3.2 kmh S 6.0 mph9.7 kmh 29.99 in1015.6 mb 0.00 in0.0 mm 0.00 in0.0 mm 0.00 in0.0 mm
01:14 PM 38.1°F3.4°C 34.6°F1.4°C 87% 2.0 mph SSW3.2 kmh SSW 4.0 mph6.4 kmh 29.99 in1015.6 mb 0.00 in0.0 mm 0.00 in0.0 mm 0.00 in0.0 mm
01:12 PM 38.1°F3.4°C 34.6°F1.4°C 87% 2.0 mph SSW3.2 kmh SSW 4.0 mph6.4 kmh 29.99 in1015.6 mb 0.00 in0.0 mm 0.00 in0.0 mm 0.00 in0.0 mm
01:10 PM 38.0°F3.3°C 34.5°F1.4°C 87% 1.0 mph SSW1.6 kmh SSW 4.0 mph6.4 kmh 30.00 in1015.9 mb 0.00 in0.0 mm 0.00 in0.0 mm 0.00 in0.0 mm
01:08 PM 38.1°F3.4°C 34.6°F1.4°C 87% 1.0 mph SSW1.6 kmh SSW 4.0 mph6.4 kmh 30.00 in1015.9 mb 0.00 in0.0 mm 0.00 in0.0 mm 0.00 in0.0 mm
01:06 PM 38.1°F3.4°C 34.6°F1.4°C 87% 1.0 mph SSW1.6 kmh SSW 3.0 mph4.8 kmh 30.00 in1015.9 mb 0.00 in0.0 mm 0.00 in0.0 mm 0.00 in0.0 mm
01:04 PM 38.0°F3.3°C 34.5°F1.4°C 87% 1.0 mph SSW1.6 kmh SSW 2.0 mph3.2 kmh 30.00 in1015.9 mb 0.00 in0.0 mm 0.00 in0.0 mm 0.00 in0.0 mm
01:02 PM 38.0°F3.3°C 34.5°F1.4°C 87% 1.0 mph SSW1.6 kmh SSW 3.0 mph4.8 kmh 30.00 in1015.9 mb 0.00 in0.0 mm 0.00 in0.0 mm 0.00 in0.0 mm
01:00 PM 38.0°F3.3°C 34.5°F1.4°C 87% 1.0 mph SSW1.6 kmh SSW 3.0 mph4.8 kmh 30.00 in1015.9 mb 0.00 in0.0 mm 0.00 in0.0 mm 0.00 in0.0 mm
12:58 PM 37.9°F3.3°C 34.4°F1.3°C 87% 1.0 mph SSW1.6 kmh SSW 4.0 mph6.4 kmh 30.00 in1015.9 mb 0.00 in0.0 mm 0.00 in0.0 mm 0.00 in0.0 mm
12:56 PM 37.9°F3.3°C 34.4°F1.3°C 87% 2.0 mph SSW3.2 kmh SSW 4.0 mph6.4 kmh 30.00 in1015.9 mb 0.00 in0.0 mm 0.00 in0.0 mm 0.00 in0.0 mm
12:54 PM 37.9°F3.3°C 34.4°F1.3°C 87% 2.0 mph SSW3.2 kmh SSW 4.0 mph6.4 kmh 30.00 in1015.9 mb 0.00 in0.0 mm 0.00 in0.0 mm 0.00 in0.0 mm
12:52 PM 37.8°F3.2°C 34.3°F1.3°C 87% 2.0 mph SSW3.2 kmh SSW 4.0 mph6.4 kmh 30.00 in1015.9 mb 0.00 in0.0 mm 0.00 in0.0 mm 0.00 in0.0 mm
12:50 PM 37.8°F3.2°C 34.3°F1.3°C 87% 2.0 mph SSW3.2 kmh SSW 4.0 mph6.4 kmh 30.00 in1015.9 mb 0.00 in0.0 mm 0.00 in0.0 mm 0.00 in0.0 mm
12:48 PM 37.8°F3.2°C 34.3°F1.3°C 87% 2.0 mph SSW3.2 kmh SSW 4.0 mph6.4 kmh 30.00 in1015.9 mb 0.00 in0.0 mm 0.00 in0.0 mm 0.00 in0.0 mm
12:46 PM 37.7°F3.2°C 34.2°F1.2°C 87% 2.0 mph SSW3.2 kmh SSW 5.0 mph8.0 kmh 30.00 in1015.9 mb 0.00 in0.0 mm 0.00 in0.0 mm 0.00 in0.0 mm
12:44 PM 37.7°F3.2°C 34.2°F1.2°C 87% 2.0 mph SSW3.2 kmh SSW 5.0 mph8.0 kmh 30.00 in1015.9 mb 0.00 in0.0 mm 0.00 in0.0 mm 0.00 in0.0 mm
12:42 PM 37.7°F3.2°C 34.2°F1.2°C 87% 2.0 mph S3.2 kmh S 5.0 mph8.0 kmh 30.00 in1015.9 mb 0.00 in0.0 mm 0.00 in0.0 mm 0.00 in0.0 mm
12:40 PM 37.7°F3.2°C 34.5°F1.4°C 88% 1.0 mph S1.6 kmh S 5.0 mph8.0 kmh 30.00 in1015.9 mb 0.00 in0.0 mm 0.00 in0.0 mm 0.00 in0.0 mm
12:38 PM 37.7°F3.2°C 34.5°F1.4°C 88% 1.0 mph S1.6 kmh S 5.0 mph8.0 kmh 30.00 in1015.9 mb 0.00 in0.0 mm 0.00 in0.0 mm 0.00 in0.0 mm
12:36 PM 37.6°F3.1°C 34.4°F1.3°C 88% 2.0 mph S3.2 kmh S 8.0 mph12.9 kmh 30.00 in1015.9 mb 0.00 in0.0 mm 0.00 in0.0 mm 0.00 in0.0 mm
12:34 PM 37.6°F3.1°C 34.4°F1.3°C 88% 2.0 mph S3.2 kmh S 8.0 mph12.9 kmh 30.00 in1015.9 mb 0.00 in0.0 mm 0.00 in0.0 mm 0.00 in0.0 mm
12:32 PM 37.5°F3.1°C 34.3°F1.3°C 88% 2.0 mph S3.2 kmh S 8.0 mph12.9 kmh 30.01 in1016.3 mb 0.00 in0.0 mm 0.00 in0.0 mm 0.00 in0.0 mm
12:30 PM 37.5°F3.1°C 34.3°F1.3°C 88% 3.0 mph S4.8 kmh S 8.0 mph12.9 kmh 30.01 in1016.3 mb 0.00 in0.0 mm 0.00 in0.0 mm 0.00 in0.0 mm
12:28 PM 37.5°F3.1°C 34.3°F1.3°C 88% 3.0 mph S4.8 kmh S 8.0 mph12.9 kmh 30.01 in1016.3 mb 0.00 in0.0 mm 0.00 in0.0 mm 0.00 in0.0 mm
12:26 PM 37.4°F3.0°C 34.2°F1.2°C 88% 3.0 mph S4.8 kmh S 8.0 mph12.9 kmh 30.01 in1016.3 mb 0.00 in0.0 mm 0.00 in0.0 mm 0.00 in0.0 mm
12:24 PM 37.4°F3.0°C 34.2°F1.2°C 88% 2.0 mph S3.2 kmh S 8.0 mph12.9 kmh 30.01 in1016.3 mb 0.00 in0.0 mm 0.00 in0.0 mm 0.00 in0.0 mm
12:22 PM 37.4°F3.0°C 34.2°F1.2°C 88% 2.0 mph S3.2 kmh S 8.0 mph12.9 kmh 30.02 in1016.6 mb 0.00 in0.0 mm 0.00 in0.0 mm 0.00 in0.0 mm
12:20 PM 37.4°F3.0°C 34.2°F1.2°C 88% 2.0 mph S3.2 kmh S 8.0 mph12.9 kmh 30.01 in1016.3 mb 0.00 in0.0 mm 0.00 in0.0 mm 0.00 in0.0 mm
12:18 PM 37.3°F2.9°C 34.4°F1.3°C 89% 2.0 mph S3.2 kmh S 8.0 mph12.9 kmh 30.01 in1016.3 mb 0.00 in0.0 mm 0.00 in0.0 mm 0.00 in0.0 mm
12:16 PM 37.3°F2.9°C 34.4°F1.3°C 89% 2.0 mph S3.2 kmh S 7.0 mph11.3 kmh 30.01 in1016.3 mb 0.00 in0.0 mm 0.00 in0.0 mm 0.00 in0.0 mm
12:14 PM 37.3°F2.9°C 34.4°F1.3°C 89% 2.0 mph S3.2 kmh S 4.0 mph6.4 kmh 30.01 in1016.3 mb 0.00 in0.0 mm 0.00 in0.0 mm 0.00 in0.0 mm
12:12 PM 37.3°F2.9°C 34.4°F1.3°C 89% 2.0 mph S3.2 kmh S 5.0 mph8.0 kmh 30.01 in1016.3 mb 0.00 in0.0 mm 0.00 in0.0 mm 0.00 in0.0 mm
12:10 PM 37.2°F2.9°C 34.3°F1.3°C 89% 2.0 mph S3.2 kmh S 5.0 mph8.0 kmh 30.01 in1016.3 mb 0.00 in0.0 mm 0.00 in0.0 mm 0.00 in0.0 mm
12:08 PM 37.2°F2.9°C 34.3°F1.3°C 89% 2.0 mph S3.2 kmh S 5.0 mph8.0 kmh 30.02 in1016.6 mb 0.00 in0.0 mm 0.00 in0.0 mm 0.00 in0.0 mm
12:06 PM 37.2°F2.9°C 34.3°F1.3°C 89% 2.0 mph S3.2 kmh S 5.0 mph8.0 kmh 30.02 in1016.6 mb 0.00 in0.0 mm 0.00 in0.0 mm 0.00 in0.0 mm
12:04 PM 37.1°F2.8°C 34.2°F1.2°C 89% 2.0 mph S3.2 kmh S 5.0 mph8.0 kmh 30.02 in1016.6 mb 0.00 in0.0 mm 0.00 in0.0 mm 0.00 in0.0 mm
12:02 PM 37.1°F2.8°C 34.2°F1.2°C 89% 2.0 mph S3.2 kmh S 4.0 mph6.4 kmh 30.02 in1016.6 mb 0.00 in0.0 mm 0.00 in0.0 mm 0.00 in0.0 mm
12:00 PM 37.0°F2.8°C 33.8°F1.0°C 88% 2.0 mph S3.2 kmh S 4.0 mph6.4 kmh 30.02 in1016.6 mb 0.00 in0.0 mm 0.00 in0.0 mm 0.00 in0.0 mm
11:58 AM 37.0°F2.8°C 34.1°F1.2°C 89% 2.0 mph S3.2 kmh S 4.0 mph6.4 kmh 30.02 in1016.6 mb 0.00 in0.0 mm 0.00 in0.0 mm 0.00 in0.0 mm
11:56 AM 37.0°F2.8°C 34.1°F1.2°C 89% 2.0 mph S3.2 kmh S 4.0 mph6.4 kmh 30.02 in1016.6 mb 0.00 in0.0 mm 0.00 in0.0 mm 0.00 in0.0 mm
11:54 AM 36.9°F2.7°C 34.0°F1.1°C 89% 2.0 mph S3.2 kmh S 4.0 mph6.4 kmh 30.03 in1016.9 mb 0.00 in0.0 mm 0.00 in0.0 mm 0.00 in0.0 mm
11:52 AM 36.9°F2.7°C 34.0°F1.1°C 89% 2.0 mph S3.2 kmh S 4.0 mph6.4 kmh 30.03 in1016.9 mb 0.00 in0.0 mm 0.00 in0.0 mm 0.00 in0.0 mm
11:50 AM 36.9°F2.7°C 33.7°F0.9°C 88% 2.0 mph S3.2 kmh S 5.0 mph8.0 kmh 30.03 in1016.9 mb 0.00 in0.0 mm 0.00 in0.0 mm 0.00 in0.0 mm
11:48 AM 36.8°F2.7°C 33.6°F0.9°C 88% 2.0 mph S3.2 kmh S 5.0 mph8.0 kmh 30.04 in1017.3 mb 0.00 in0.0 mm 0.00 in0.0 mm 0.00 in0.0 mm
11:46 AM 36.8°F2.7°C 33.6°F0.9°C 88% 2.0 mph SSE3.2 kmh SSE 5.0 mph8.0 kmh 30.04 in1017.3 mb 0.00 in0.0 mm 0.00 in0.0 mm 0.00 in0.0 mm
11:44 AM 36.7°F2.6°C 33.5°F0.8°C 88% 2.0 mph SSE3.2 kmh SSE 5.0 mph8.0 kmh 30.04 in1017.3 mb 0.00 in0.0 mm 0.00 in0.0 mm 0.00 in0.0 mm
11:42 AM 36.7°F2.6°C 33.5°F0.8°C 88% 2.0 mph SSE3.2 kmh SSE 5.0 mph8.0 kmh 30.04 in1017.3 mb 0.00 in0.0 mm 0.00 in0.0 mm 0.00 in0.0 mm
11:40 AM 36.7°F2.6°C 33.5°F0.8°C 88% 3.0 mph SSE4.8 kmh SSE 5.0 mph8.0 kmh 30.04 in1017.3 mb 0.00 in0.0 mm 0.00 in0.0 mm 0.00 in0.0 mm
11:38 AM 36.7°F2.6°C 33.2°F0.7°C 87% 3.0 mph SSE4.8 kmh SSE 8.0 mph12.9 kmh 30.04 in1017.3 mb 0.00 in0.0 mm 0.00 in0.0 mm 0.00 in0.0 mm
11:36 AM 36.7°F2.6°C 33.2°F0.7°C 87% 3.0 mph S4.8 kmh S 8.0 mph12.9 kmh 30.05 in1017.6 mb 0.00 in0.0 mm 0.00 in0.0 mm 0.00 in0.0 mm
11:34 AM 36.7°F2.6°C 33.2°F0.7°C 87% 3.0 mph S4.8 kmh S 8.0 mph12.9 kmh 30.05 in1017.6 mb 0.00 in0.0 mm 0.00 in0.0 mm 0.00 in0.0 mm
11:32 AM 36.7°F2.6°C 32.9°F0.5°C 86% 3.0 mph S4.8 kmh S 8.0 mph12.9 kmh 30.05 in1017.6 mb 0.00 in0.0 mm 0.00 in0.0 mm 0.00 in0.0 mm
11:30 AM 36.8°F2.7°C 33.0°F0.6°C 86% 3.0 mph S4.8 kmh S 8.0 mph12.9 kmh 30.06 in1017.9 mb 0.00 in0.0 mm 0.00 in0.0 mm 0.00 in0.0 mm
11:28 AM 36.8°F2.7°C 33.0°F0.6°C 86% 2.0 mph S3.2 kmh S 5.0 mph8.0 kmh 30.06 in1017.9 mb 0.00 in0.0 mm 0.00 in0.0 mm 0.00 in0.0 mm
11:26 AM 36.8°F2.7°C 33.0°F0.6°C 86% 3.0 mph S4.8 kmh S 5.0 mph8.0 kmh 30.06 in1017.9 mb 0.00 in0.0 mm 0.00 in0.0 mm 0.00 in0.0 mm
11:24 AM 36.8°F2.7°C 33.0°F0.6°C 86% 2.0 mph S3.2 kmh S 5.0 mph8.0 kmh 30.06 in1017.9 mb 0.00 in0.0 mm 0.00 in0.0 mm 0.00 in0.0 mm
11:22 AM 36.8°F2.7°C 33.0°F0.6°C 86% 3.0 mph S4.8 kmh S 8.0 mph12.9 kmh 30.06 in1017.9 mb 0.00 in0.0 mm 0.00 in0.0 mm 0.00 in0.0 mm
11:20 AM 36.8°F2.7°C 33.0°F0.6°C 86% 3.0 mph S4.8 kmh S 8.0 mph12.9 kmh 30.06 in1017.9 mb 0.00 in0.0 mm 0.00 in0.0 mm 0.00 in0.0 mm
11:18 AM 36.8°F2.7°C 33.0°F0.6°C 86% 3.0 mph S4.8 kmh S 8.0 mph12.9 kmh 30.06 in1017.9 mb 0.00 in0.0 mm 0.00 in0.0 mm 0.00 in0.0 mm
11:16 AM 36.8°F2.7°C 33.0°F0.6°C 86% 3.0 mph S4.8 kmh S 8.0 mph12.9 kmh 30.06 in1017.9 mb 0.00 in0.0 mm 0.00 in0.0 mm 0.00 in0.0 mm
11:14 AM 36.8°F2.7°C 33.0°F0.6°C 86% 3.0 mph S4.8 kmh S 8.0 mph12.9 kmh 30.06 in1017.9 mb 0.00 in0.0 mm 0.00 in0.0 mm 0.00 in0.0 mm
11:12 AM 36.8°F2.7°C 33.0°F0.6°C 86% 3.0 mph S4.8 kmh S 8.0 mph12.9 kmh 30.07 in1018.3 mb 0.00 in0.0 mm 0.00 in0.0 mm 0.00 in0.0 mm
11:10 AM 36.8°F2.7°C 33.0°F0.6°C 86% 2.0 mph S3.2 kmh S 6.0 mph9.7 kmh 30.07 in1018.3 mb 0.00 in0.0 mm 0.00 in0.0 mm 0.00 in0.0 mm
11:08 AM 36.8°F2.7°C 33.0°F0.6°C 86% 2.0 mph S3.2 kmh S 6.0 mph9.7 kmh 30.06 in1017.9 mb 0.00 in0.0 mm 0.00 in0.0 mm 0.00 in0.0 mm
11:06 AM 36.8°F2.7°C 33.3°F0.7°C 87% 2.0 mph S3.2 kmh S 5.0 mph8.0 kmh 30.06 in1017.9 mb 0.00 in0.0 mm 0.00 in0.0 mm 0.00 in0.0 mm
11:04 AM 36.7°F2.6°C 32.9°F0.5°C 86% 2.0 mph S3.2 kmh S 6.0 mph9.7 kmh 30.06 in1017.9 mb 0.00 in0.0 mm 0.00 in0.0 mm 0.00 in0.0 mm
11:02 AM 36.6°F2.6°C 33.1°F0.6°C 87% 2.0 mph S3.2 kmh S 8.0 mph12.9 kmh 30.05 in1017.6 mb 0.00 in0.0 mm 0.00 in0.0 mm 0.00 in0.0 mm
11:00 AM 36.6°F2.6°C 33.1°F0.6°C 87% 3.0 mph S4.8 kmh S 8.0 mph12.9 kmh 30.06 in1017.9 mb 0.00 in0.0 mm 0.00 in0.0 mm 0.00 in0.0 mm
10:58 AM 36.6°F2.6°C 32.8°F0.4°C 86% 3.0 mph S4.8 kmh S 8.0 mph12.9 kmh 30.06 in1017.9 mb 0.00 in0.0 mm 0.00 in0.0 mm 0.00 in0.0 mm
10:56 AM 36.6°F2.6°C 32.8°F0.4°C 86% 3.0 mph S4.8 kmh S 8.0 mph12.9 kmh 30.07 in1018.3 mb 0.00 in0.0 mm 0.00 in0.0 mm 0.00 in0.0 mm
10:54 AM 36.6°F2.6°C 33.1°F0.6°C 87% 3.0 mph S4.8 kmh S 8.0 mph12.9 kmh 30.07 in1018.3 mb 0.00 in0.0 mm 0.00 in0.0 mm 0.00 in0.0 mm
10:52 AM 36.6°F2.6°C 33.1°F0.6°C 87% 3.0 mph S4.8 kmh S 7.0 mph11.3 kmh 30.07 in1018.3 mb 0.00 in0.0 mm 0.00 in0.0 mm 0.00 in0.0 mm
10:50 AM 36.6°F2.6°C 33.1°F0.6°C 87% 3.0 mph S4.8 kmh S 7.0 mph11.3 kmh 30.07 in1018.3 mb 0.00 in0.0 mm 0.00 in0.0 mm 0.00 in0.0 mm
10:48 AM 36.5°F2.5°C 33.0°F0.6°C 87% 4.0 mph S6.4 kmh S 9.0 mph14.5 kmh 30.07 in1018.3 mb 0.00 in0.0 mm 0.00 in0.0 mm 0.00 in0.0 mm
10:46 AM 36.5°F2.5°C 33.0°F0.6°C 87% 4.0 mph S6.4 kmh S 9.0 mph14.5 kmh 30.07 in1018.3 mb 0.00 in0.0 mm 0.00 in0.0 mm 0.00 in0.0 mm
10:44 AM 36.5°F2.5°C 32.7°F0.4°C 86% 4.0 mph S6.4 kmh S 9.0 mph14.5 kmh 30.07 in1018.3 mb 0.00 in0.0 mm 0.00 in0.0 mm 0.00 in0.0 mm
10:42 AM 36.5°F2.5°C 33.0°F0.6°C 87% 4.0 mph S6.4 kmh S 9.0 mph14.5 kmh 30.08 in1018.6 mb 0.00 in0.0 mm 0.00 in0.0 mm 0.00 in0.0 mm
10:40 AM 36.6°F2.6°C 32.8°F0.4°C 86% 4.0 mph S6.4 kmh S 9.0 mph14.5 kmh 30.08 in1018.6 mb 0.00 in0.0 mm 0.00 in0.0 mm 0.00 in0.0 mm
10:38 AM 36.6°F2.6°C 33.1°F0.6°C 87% 4.0 mph S6.4 kmh S 8.0 mph12.9 kmh 30.08 in1018.6 mb 0.00 in0.0 mm 0.00 in0.0 mm 0.00 in0.0 mm
10:36 AM 36.6°F2.6°C 33.1°F0.6°C 87% 4.0 mph S6.4 kmh S 8.0 mph12.9 kmh 30.07 in1018.3 mb 0.00 in0.0 mm 0.00 in0.0 mm 0.00 in0.0 mm
10:34 AM 36.6°F2.6°C 33.1°F0.6°C 87% 4.0 mph S6.4 kmh S 8.0 mph12.9 kmh 30.08 in1018.6 mb 0.00 in0.0 mm 0.00 in0.0 mm 0.00 in0.0 mm
10:32 AM 36.6°F2.6°C 33.1°F0.6°C 87% 4.0 mph S6.4 kmh S 9.0 mph14.5 kmh 30.08 in1018.6 mb 0.00 in0.0 mm 0.00 in0.0 mm 0.00 in0.0 mm
10:30 AM 36.6°F2.6°C 33.1°F0.6°C 87% 4.0 mph S6.4 kmh S 9.0 mph14.5 kmh 30.08 in1018.6 mb 0.00 in0.0 mm 0.00 in0.0 mm 0.00 in0.0 mm
10:28 AM 36.6°F2.6°C 33.1°F0.6°C 87% 4.0 mph S6.4 kmh S 9.0 mph14.5 kmh 30.08 in1018.6 mb 0.00 in0.0 mm 0.00 in0.0 mm 0.00 in0.0 mm
10:26 AM 36.6°F2.6°C 33.1°F0.6°C 87% 4.0 mph S6.4 kmh S 9.0 mph14.5 kmh 30.08 in1018.6 mb 0.00 in0.0 mm 0.00 in0.0 mm 0.00 in0.0 mm
10:24 AM 36.5°F2.5°C 33.0°F0.6°C 87% 3.0 mph S4.8 kmh S 9.0 mph14.5 kmh 30.08 in1018.6 mb 0.00 in0.0 mm 0.00 in0.0 mm 0.00 in0.0 mm
10:22 AM 36.5°F2.5°C 33.3°F0.7°C 88% 3.0 mph S4.8 kmh S 7.0 mph11.3 kmh 30.08 in1018.6 mb 0.00 in0.0 mm 0.00 in0.0 mm 0.00 in0.0 mm
10:20 AM 36.5°F2.5°C 33.3°F0.7°C 88% 2.0 mph S3.2 kmh S 7.0 mph11.3 kmh 30.08 in1018.6 mb 0.00 in0.0 mm 0.00 in0.0 mm 0.00 in0.0 mm
10:18 AM 36.4°F2.4°C 33.2°F0.7°C 88% 2.0 mph S3.2 kmh S 7.0 mph11.3 kmh 30.07 in1018.3 mb 0.00 in0.0 mm 0.00 in0.0 mm 0.00 in0.0 mm
10:16 AM 36.3°F2.4°C 33.1°F0.6°C 88% 2.0 mph SSE3.2 kmh SSE 5.0 mph8.0 kmh 30.07 in1018.3 mb 0.00 in0.0 mm 0.00 in0.0 mm 0.00 in0.0 mm
10:14 AM 36.2°F2.3°C 33.0°F0.6°C 88% 2.0 mph SSE3.2 kmh SSE 4.0 mph6.4 kmh 30.07 in1018.3 mb 0.00 in0.0 mm 0.00 in0.0 mm 0.00 in0.0 mm
10:12 AM 36.0°F2.2°C 32.8°F0.4°C 88% 2.0 mph S3.2 kmh S 6.0 mph9.7 kmh 30.07 in1018.3 mb 0.00 in0.0 mm 0.00 in0.0 mm 0.00 in0.0 mm
10:10 AM 35.9°F2.2°C 33.0°F0.6°C 89% 2.0 mph S3.2 kmh S 6.0 mph9.7 kmh 30.07 in1018.3 mb 0.00 in0.0 mm 0.00 in0.0 mm 0.00 in0.0 mm
10:08 AM 35.8°F2.1°C 32.9°F0.5°C 89% 3.0 mph S4.8 kmh S 8.0 mph12.9 kmh 30.07 in1018.3 mb 0.00 in0.0 mm 0.00 in0.0 mm 0.00 in0.0 mm
10:06 AM 35.7°F2.1°C 32.8°F0.4°C 89% 4.0 mph S6.4 kmh S 10.0 mph16.1 kmh 30.08 in1018.6 mb 0.00 in0.0 mm 0.00 in0.0 mm 0.00 in0.0 mm
10:04 AM 35.6°F2.0°C 32.7°F0.4°C 89% 4.0 mph S6.4 kmh S 10.0 mph16.1 kmh 30.08 in1018.6 mb 0.00 in0.0 mm 0.00 in0.0 mm 0.00 in0.0 mm
10:02 AM 35.5°F1.9°C 32.6°F0.3°C 89% 3.0 mph S4.8 kmh S 10.0 mph16.1 kmh 30.08 in1018.6 mb 0.00 in0.0 mm 0.00 in0.0 mm 0.00 in0.0 mm
10:00 AM 35.4°F1.9°C 32.5°F0.3°C 89% 3.0 mph S4.8 kmh S 10.0 mph16.1 kmh 30.08 in1018.6 mb 0.00 in0.0 mm 0.00 in0.0 mm 0.00 in0.0 mm
09:58 AM 35.3°F1.8°C 32.7°F0.4°C 90% 3.0 mph S4.8 kmh S 10.0 mph16.1 kmh 30.08 in1018.6 mb 0.00 in0.0 mm 0.00 in0.0 mm 0.00 in0.0 mm
09:56 AM 35.2°F1.8°C 32.8°F0.4°C 91% 2.0 mph S3.2 kmh S 5.0 mph8.0 kmh 30.08 in1018.6 mb 0.00 in0.0 mm 0.00 in0.0 mm 0.00 in0.0 mm
09:54 AM 34.9°F1.6°C 32.5°F0.3°C 91% 2.0 mph S3.2 kmh S 6.0 mph9.7 kmh 30.08 in1018.6 mb 0.00 in0.0 mm 0.00 in0.0 mm 0.00 in0.0 mm
09:52 AM 34.7°F1.5°C 32.1°F0.1°C 90% 2.0 mph S3.2 kmh S 6.0 mph9.7 kmh 30.08 in1018.6 mb 0.00 in0.0 mm 0.00 in0.0 mm 0.00 in0.0 mm
09:50 AM 34.5°F1.4°C 32.1°F0.1°C 91% 2.0 mph S3.2 kmh S 6.0 mph9.7 kmh 30.08 in1018.6 mb 0.00 in0.0 mm 0.00 in0.0 mm 0.00 in0.0 mm
09:48 AM 34.4°F1.3°C 32.0°F0.0°C 91% 2.0 mph S3.2 kmh S 6.0 mph9.7 kmh 30.08 in1018.6 mb 0.00 in0.0 mm 0.00 in0.0 mm 0.00 in0.0 mm
09:46 AM 34.2°F1.2°C 31.8°F-0.1°C 91% 2.0 mph S3.2 kmh S 6.0 mph9.7 kmh 30.09 in1019.0 mb 0.00 in0.0 mm 0.00 in0.0 mm 0.00 in0.0 mm
09:44 AM 34.1°F1.2°C 31.7°F-0.2°C 91% 2.0 mph S3.2 kmh S 6.0 mph9.7 kmh 30.08 in1018.6 mb 0.00 in0.0 mm 0.00 in0.0 mm 0.00 in0.0 mm
09:42 AM 33.9°F1.1°C 31.6°F-0.2°C 91% 3.0 mph S4.8 kmh S 6.0 mph9.7 kmh 30.08 in1018.6 mb 0.00 in0.0 mm 0.00 in0.0 mm 0.00 in0.0 mm
09:40 AM 33.8°F1.0°C 31.5°F-0.3°C 91% 3.0 mph S4.8 kmh S 8.0 mph12.9 kmh 30.08 in1018.6 mb 0.00 in0.0 mm 0.00 in0.0 mm 0.00 in0.0 mm
09:38 AM 33.7°F0.9°C 31.6°F-0.2°C 92% 2.0 mph S3.2 kmh S 8.0 mph12.9 kmh 30.08 in1018.6 mb 0.00 in0.0 mm 0.00 in0.0 mm 0.00 in0.0 mm
09:36 AM 33.5°F0.8°C 31.4°F-0.3°C 92% 2.0 mph S3.2 kmh S 8.0 mph12.9 kmh 30.09 in1019.0 mb 0.00 in0.0 mm 0.00 in0.0 mm 0.00 in0.0 mm
09:34 AM 33.4°F0.8°C 31.3°F-0.4°C 92% 2.0 mph S3.2 kmh S 8.0 mph12.9 kmh 30.09 in1019.0 mb 0.00 in0.0 mm 0.00 in0.0 mm 0.00 in0.0 mm
09:32 AM 33.2°F0.7°C 31.4°F-0.3°C 93% 2.0 mph S3.2 kmh S 8.0 mph12.9 kmh 30.09 in1019.0 mb 0.00 in0.0 mm 0.00 in0.0 mm 0.00 in0.0 mm
09:30 AM 33.0°F0.6°C 31.2°F-0.4°C 93% 2.0 mph S3.2 kmh S 7.0 mph11.3 kmh 30.09 in1019.0 mb 0.00 in0.0 mm 0.00 in0.0 mm 0.00 in0.0 mm
09:28 AM 32.8°F0.4°C 31.0°F-0.6°C 93% 2.0 mph S3.2 kmh S 7.0 mph11.3 kmh 30.08 in1018.6 mb 0.00 in0.0 mm 0.00 in0.0 mm 0.00 in0.0 mm
09:26 AM 32.6°F0.3°C 30.8°F-0.7°C 93% 2.0 mph S3.2 kmh S 7.0 mph11.3 kmh 30.08 in1018.6 mb 0.00 in0.0 mm 0.00 in0.0 mm 0.00 in0.0 mm
09:24 AM 32.4°F0.2°C 30.6°F-0.8°C 93% 2.0 mph SSE3.2 kmh SSE 7.0 mph11.3 kmh 30.09 in1019.0 mb 0.00 in0.0 mm 0.00 in0.0 mm 0.00 in0.0 mm
09:22 AM 32.2°F0.1°C 30.4°F-0.9°C 93% 2.0 mph SSE3.2 kmh SSE 4.0 mph6.4 kmh 30.08 in1018.6 mb 0.00 in0.0 mm 0.00 in0.0 mm 0.00 in0.0 mm
09:20 AM 32.0°F0.0°C 30.5°F-0.8°C 94% 1.0 mph SSE1.6 kmh SSE 4.0 mph6.4 kmh 30.09 in1019.0 mb 0.00 in0.0 mm 0.00 in0.0 mm 0.00 in0.0 mm
09:18 AM 31.8°F-0.1°C 30.3°F-0.9°C 94% 1.0 mph SSE1.6 kmh SSE 4.0 mph6.4 kmh 30.09 in1019.0 mb 0.00 in0.0 mm 0.00 in0.0 mm 0.00 in0.0 mm
09:16 AM 31.7°F-0.2°C 29.9°F-1.2°C 93% 1.0 mph SSE1.6 kmh SSE 4.0 mph6.4 kmh 30.09 in1019.0 mb 0.00 in0.0 mm 0.00 in0.0 mm 0.00 in0.0 mm
09:14 AM 31.5°F-0.3°C 30.0°F-1.1°C 94% 1.0 mph SSE1.6 kmh SSE 4.0 mph6.4 kmh 30.09 in1019.0 mb 0.00 in0.0 mm 0.00 in0.0 mm 0.00 in0.0 mm
09:12 AM 31.4°F-0.3°C 29.9°F-1.2°C 94% 1.0 mph SSE1.6 kmh SSE 3.0 mph4.8 kmh 30.09 in1019.0 mb 0.00 in0.0 mm 0.00 in0.0 mm 0.00 in0.0 mm
09:10 AM 31.3°F-0.4°C 29.8°F-1.2°C 94% 1.0 mph SSE1.6 kmh SSE 3.0 mph4.8 kmh 30.09 in1019.0 mb 0.00 in0.0 mm 0.00 in0.0 mm 0.00 in0.0 mm
09:08 AM 31.2°F-0.4°C 29.7°F-1.3°C 94% 1.0 mph SSE1.6 kmh SSE 3.0 mph4.8 kmh 30.09 in1019.0 mb 0.00 in0.0 mm 0.00 in0.0 mm 0.00 in0.0 mm
09:06 AM 31.0°F-0.6°C 29.5°F-1.4°C 94% 1.0 mph SSE1.6 kmh SSE 3.0 mph4.8 kmh 30.09 in1019.0 mb 0.00 in0.0 mm 0.00 in0.0 mm 0.00 in0.0 mm
09:04 AM 30.9°F-0.6°C 29.4°F-1.4°C 94% 2.0 mph SSE3.2 kmh SSE 3.0 mph4.8 kmh 30.09 in1019.0 mb 0.00 in0.0 mm 0.00 in0.0 mm 0.00 in0.0 mm
09:02 AM 30.8°F-0.7°C 29.3°F-1.5°C 94% 2.0 mph SSE3.2 kmh SSE 4.0 mph6.4 kmh 30.09 in1019.0 mb 0.00 in0.0 mm 0.00 in0.0 mm 0.00 in0.0 mm
09:00 AM 30.7°F-0.7°C 29.2°F-1.6°C 94% 2.0 mph SSE3.2 kmh SSE 4.0 mph6.4 kmh 30.09 in1019.0 mb 0.00 in0.0 mm 0.00 in0.0 mm 0.00 in0.0 mm
08:58 AM 30.6°F-0.8°C 29.1°F-1.6°C 94% 2.0 mph SSE3.2 kmh SSE 4.0 mph6.4 kmh 30.09 in1019.0 mb 0.00 in0.0 mm 0.00 in0.0 mm 0.00 in0.0 mm
08:56 AM 30.5°F-0.8°C 29.0°F-1.7°C 94% 2.0 mph SSE3.2 kmh SSE 4.0 mph6.4 kmh 30.09 in1019.0 mb 0.00 in0.0 mm 0.00 in0.0 mm 0.00 in0.0 mm
08:54 AM 30.4°F-0.9°C 28.9°F-1.7°C 94% 2.0 mph SSE3.2 kmh SSE 4.0 mph6.4 kmh 30.09 in1019.0 mb 0.00 in0.0 mm 0.00 in0.0 mm 0.00 in0.0 mm
08:52 AM 30.3°F-0.9°C 28.8°F-1.8°C 94% 2.0 mph SSE3.2 kmh SSE 4.0 mph6.4 kmh 30.09 in1019.0 mb 0.00 in0.0 mm 0.00 in0.0 mm 0.00 in0.0 mm
08:50 AM 30.2°F-1.0°C 28.7°F-1.8°C 94% 2.0 mph SSE3.2 kmh SSE 4.0 mph6.4 kmh 30.09 in1019.0 mb 0.00 in0.0 mm 0.00 in0.0 mm 0.00 in0.0 mm
08:48 AM 30.1°F-1.1°C 28.6°F-1.9°C 94% 2.0 mph SSE3.2 kmh SSE 4.0 mph6.4 kmh 30.09 in1019.0 mb 0.00 in0.0 mm 0.00 in0.0 mm 0.00 in0.0 mm
08:46 AM 30.1°F-1.1°C 28.6°F-1.9°C 94% 2.0 mph SSE3.2 kmh SSE 4.0 mph6.4 kmh 30.09 in1019.0 mb 0.00 in0.0 mm 0.00 in0.0 mm 0.00 in0.0 mm
08:44 AM 30.1°F-1.1°C 28.6°F-1.9°C 94% 1.0 mph SSE1.6 kmh SSE 4.0 mph6.4 kmh 30.10 in1019.3 mb 0.00 in0.0 mm 0.00 in0.0 mm 0.00 in0.0 mm
08:42 AM 29.9°F-1.2°C 28.4°F-2.0°C 94% 1.0 mph SSE1.6 kmh SSE 3.0 mph4.8 kmh 30.11 in1019.6 mb 0.00 in0.0 mm 0.00 in0.0 mm 0.00 in0.0 mm
08:40 AM 29.8°F-1.2°C 28.3°F-2.1°C 94% 1.0 mph SSE1.6 kmh SSE 3.0 mph4.8 kmh 30.11 in1019.6 mb 0.00 in0.0 mm 0.00 in0.0 mm 0.00 in0.0 mm
08:38 AM 29.6°F-1.3°C 28.3°F-2.1°C 95% 1.0 mph SSE1.6 kmh SSE 2.0 mph3.2 kmh 30.11 in1019.6 mb 0.00 in0.0 mm 0.00 in0.0 mm 0.00 in0.0 mm
08:36 AM 29.4°F-1.4°C 27.9°F-2.3°C 94% 1.0 mph 1.6 kmh -- 30.11 in1019.6 mb 0.00 in0.0 mm 0.00 in0.0 mm 0.00 in0.0 mm
08:34 AM 29.3°F-1.5°C 27.8°F-2.3°C 94% 1.0 mph 1.6 kmh -- 30.12 in1020.0 mb 0.00 in0.0 mm 0.00 in0.0 mm 0.00 in0.0 mm
08:32 AM 29.1°F-1.6°C 27.6°F-2.4°C 94% 1.0 mph 1.6 kmh -- 30.12 in1020.0 mb 0.00 in0.0 mm 0.00 in0.0 mm 0.00 in0.0 mm
08:30 AM 28.9°F-1.7°C 27.4°F-2.6°C 94% 1.0 mph 1.6 kmh -- 30.12 in1020.0 mb 0.00 in0.0 mm 0.00 in0.0 mm 0.00 in0.0 mm
08:28 AM 28.3°F-2.1°C 26.8°F-2.9°C 94% 1.0 mph 1.6 kmh -- 30.12 in1020.0 mb 0.00 in0.0 mm 0.00 in0.0 mm 0.00 in0.0 mm
08:26 AM 28.3°F-2.1°C 26.8°F-2.9°C 94% 1.0 mph 1.6 kmh -- 30.11 in1019.6 mb 0.00 in0.0 mm 0.00 in0.0 mm 0.00 in0.0 mm
08:24 AM 28.3°F-2.1°C 26.8°F-2.9°C 94% 1.0 mph 1.6 kmh -- 30.11 in1019.6 mb 0.00 in0.0 mm 0.00 in0.0 mm 0.00 in0.0 mm
08:18 AM 28.0°F-2.2°C 26.5°F-3.1°C 94% Calm Calm 2.0 mph3.2 kmh 30.12 in1020.0 mb 0.00 in0.0 mm 0.00 in0.0 mm 0.00 in0.0 mm
08:16 AM 27.9°F-2.3°C 26.4°F-3.1°C 94% Calm Calm 2.0 mph3.2 kmh 30.12 in1020.0 mb 0.00 in0.0 mm 0.00 in0.0 mm 0.00 in0.0 mm
08:14 AM 27.7°F-2.4°C 26.2°F-3.2°C 94% Calm Calm 2.0 mph3.2 kmh 30.12 in1020.0 mb 0.00 in0.0 mm 0.00 in0.0 mm 0.00 in0.0 mm
08:12 AM 27.6°F-2.4°C 26.1°F-3.3°C 94% Calm Calm 2.0 mph3.2 kmh 30.12 in1020.0 mb 0.00 in0.0 mm 0.00 in0.0 mm 0.00 in0.0 mm
08:10 AM 27.5°F-2.5°C 26.0°F-3.3°C 94% Calm Calm 2.0 mph3.2 kmh 30.12 in1020.0 mb 0.00 in0.0 mm 0.00 in0.0 mm 0.00 in0.0 mm
08:08 AM 27.4°F-2.6°C 25.9°F-3.4°C 94% 1.0 mph SSE1.6 kmh SSE 3.0 mph4.8 kmh 30.12 in1020.0 mb 0.00 in0.0 mm 0.00 in0.0 mm 0.00 in0.0 mm
08:06 AM 27.3°F-2.6°C 25.8°F-3.4°C 94% 1.0 mph SE1.6 kmh SE 4.0 mph6.4 kmh 30.12 in1020.0 mb 0.00 in0.0 mm 0.00 in0.0 mm 0.00 in0.0 mm
08:04 AM 27.2°F-2.7°C 25.7°F-3.5°C 94% 1.0 mph SE1.6 kmh SE 4.0 mph6.4 kmh 30.12 in1020.0 mb 0.00 in0.0 mm 0.00 in0.0 mm 0.00 in0.0 mm
08:02 AM 27.1°F-2.7°C 25.6°F-3.6°C 94% 1.0 mph SE1.6 kmh SE 4.0 mph6.4 kmh 30.12 in1020.0 mb 0.00 in0.0 mm 0.00 in0.0 mm 0.00 in0.0 mm
08:00 AM 27.0°F-2.8°C 25.5°F-3.6°C 94% 1.0 mph ESE1.6 kmh ESE 4.0 mph6.4 kmh 30.13 in1020.3 mb 0.00 in0.0 mm 0.00 in0.0 mm 0.00 in0.0 mm
07:58 AM 26.9°F-2.8°C 25.4°F-3.7°C 94% 1.0 mph E1.6 kmh E 4.0 mph6.4 kmh 30.13 in1020.3 mb 0.00 in0.0 mm 0.00 in0.0 mm 0.00 in0.0 mm
07:56 AM 26.8°F-2.9°C 25.3°F-3.7°C 94% 1.0 mph ENE1.6 kmh ENE 3.0 mph4.8 kmh 30.12 in1020.0 mb 0.00 in0.0 mm 0.00 in0.0 mm 0.00 in0.0 mm
07:54 AM 26.7°F-2.9°C 25.2°F-3.8°C 94% 1.0 mph ENE1.6 kmh ENE 3.0 mph4.8 kmh 30.12 in1020.0 mb 0.00 in0.0 mm 0.00 in0.0 mm 0.00 in0.0 mm
07:52 AM 26.6°F-3.0°C 25.1°F-3.8°C 94% 1.0 mph ENE1.6 kmh ENE 3.0 mph4.8 kmh 30.12 in1020.0 mb 0.00 in0.0 mm 0.00 in0.0 mm 0.00 in0.0 mm
07:50 AM 26.5°F-3.1°C 25.0°F-3.9°C 94% Calm Calm 3.0 mph4.8 kmh 30.12 in1020.0 mb 0.00 in0.0 mm 0.00 in0.0 mm 0.00 in0.0 mm
07:48 AM 26.4°F-3.1°C 24.9°F-3.9°C 94% Calm Calm 2.0 mph3.2 kmh 30.13 in1020.3 mb 0.00 in0.0 mm 0.00 in0.0 mm 0.00 in0.0 mm
07:46 AM 26.3°F-3.2°C 24.8°F-4.0°C 94% Calm Calm 2.0 mph3.2 kmh 30.13 in1020.3 mb 0.00 in0.0 mm 0.00 in0.0 mm 0.00 in0.0 mm
07:44 AM 26.2°F-3.2°C 24.7°F-4.1°C 94% Calm Calm 2.0 mph3.2 kmh 30.13 in1020.3 mb 0.00 in0.0 mm 0.00 in0.0 mm 0.00 in0.0 mm
07:42 AM 26.2°F-3.2°C 24.7°F-4.1°C 94% Calm Calm 2.0 mph3.2 kmh 30.13 in1020.3 mb 0.00 in0.0 mm 0.00 in0.0 mm 0.00 in0.0 mm
07:40 AM 26.2°F-3.2°C 24.7°F-4.1°C 94% 1.0 mph ENE1.6 kmh ENE 3.0 mph4.8 kmh 30.13 in1020.3 mb 0.00 in0.0 mm 0.00 in0.0 mm 0.00 in0.0 mm
07:38 AM 26.2°F-3.2°C 24.7°F-4.1°C 94% 1.0 mph ENE1.6 kmh ENE 3.0 mph4.8 kmh 30.13 in1020.3 mb 0.00 in0.0 mm 0.00 in0.0 mm 0.00 in0.0 mm
07:36 AM 26.2°F-3.2°C 24.7°F-4.1°C 94% 1.0 mph ENE1.6 kmh ENE 3.0 mph4.8 kmh 30.14 in1020.7 mb 0.00 in0.0 mm 0.00 in0.0 mm 0.00 in0.0 mm
07:34 AM 26.2°F-3.2°C 25.0°F-3.9°C 95% 1.0 mph ENE1.6 kmh ENE 3.0 mph4.8 kmh 30.14 in1020.7 mb 0.00 in0.0 mm 0.00 in0.0 mm 0.00 in0.0 mm
07:32 AM 26.2°F-3.2°C 25.0°F-3.9°C 95% 1.0 mph ENE1.6 kmh ENE 3.0 mph4.8 kmh 30.14 in1020.7 mb 0.00 in0.0 mm 0.00 in0.0 mm 0.00 in0.0 mm
07:30 AM 26.2°F-3.2°C 25.0°F-3.9°C 95% 1.0 mph ENE1.6 kmh ENE 3.0 mph4.8 kmh 30.14 in1020.7 mb 0.00 in0.0 mm 0.00 in0.0 mm 0.00 in0.0 mm
07:28 AM 26.1°F-3.3°C 24.9°F-3.9°C 95% 1.0 mph ENE1.6 kmh ENE 3.0 mph4.8 kmh 30.13 in1020.3 mb 0.00 in0.0 mm 0.00 in0.0 mm 0.00 in0.0 mm
07:26 AM 25.9°F-3.4°C 24.4°F-4.2°C 94% 2.0 mph ENE3.2 kmh ENE 3.0 mph4.8 kmh 30.13 in1020.3 mb 0.00 in0.0 mm 0.00 in0.0 mm 0.00 in0.0 mm
07:24 AM 25.8°F-3.4°C 24.6°F-4.1°C 95% 2.0 mph ENE3.2 kmh ENE 3.0 mph4.8 kmh 30.13 in1020.3 mb 0.00 in0.0 mm 0.00 in0.0 mm 0.00 in0.0 mm
07:22 AM 25.6°F-3.6°C 24.1°F-4.4°C 94% 2.0 mph ENE3.2 kmh ENE 3.0 mph4.8 kmh 30.12 in1020.0 mb 0.00 in0.0 mm 0.00 in0.0 mm 0.00 in0.0 mm
07:20 AM 25.4°F-3.7°C 23.9°F-4.5°C 94% 1.0 mph ENE1.6 kmh ENE 3.0 mph4.8 kmh 30.13 in1020.3 mb 0.00 in0.0 mm 0.00 in0.0 mm 0.00 in0.0 mm
07:18 AM 25.1°F-3.8°C 23.9°F-4.5°C 95% 1.0 mph ENE1.6 kmh ENE 3.0 mph4.8 kmh 30.13 in1020.3 mb 0.00 in0.0 mm 0.00 in0.0 mm 0.00 in0.0 mm
07:16 AM 24.8°F-4.0°C 23.3°F-4.8°C 94% 1.0 mph ENE1.6 kmh ENE 2.0 mph3.2 kmh 30.14 in1020.7 mb 0.00 in0.0 mm 0.00 in0.0 mm 0.00 in0.0 mm
07:14 AM 24.6°F-4.1°C 23.1°F-4.9°C 94% 1.0 mph ENE1.6 kmh ENE 2.0 mph3.2 kmh 30.14 in1020.7 mb 0.00 in0.0 mm 0.00 in0.0 mm 0.00 in0.0 mm
07:12 AM 24.2°F-4.3°C 22.7°F-5.2°C 94% 1.0 mph ENE1.6 kmh ENE 2.0 mph3.2 kmh 30.14 in1020.7 mb 0.00 in0.0 mm 0.00 in0.0 mm 0.00 in0.0 mm
07:10 AM 24.2°F-4.3°C 22.7°F-5.2°C 94% 1.0 mph ENE1.6 kmh ENE 2.0 mph3.2 kmh 30.14 in1020.7 mb 0.00 in0.0 mm 0.00 in0.0 mm 0.00 in0.0 mm
07:08 AM 24.1°F-4.4°C 22.6°F-5.2°C 94% 1.0 mph ENE1.6 kmh ENE 2.0 mph3.2 kmh 30.14 in1020.7 mb 0.00 in0.0 mm 0.00 in0.0 mm 0.00 in0.0 mm
07:06 AM 24.0°F-4.4°C 22.5°F-5.3°C 94% 1.0 mph ENE1.6 kmh ENE 2.0 mph3.2 kmh 30.14 in1020.7 mb 0.00 in0.0 mm 0.00 in0.0 mm 0.00 in0.0 mm
07:04 AM 23.8°F-4.6°C 22.3°F-5.4°C 94% Calm Calm 2.0 mph3.2 kmh 30.14 in1020.7 mb 0.00 in0.0 mm 0.00 in0.0 mm 0.00 in0.0 mm
07:02 AM 23.7°F-4.6°C 22.2°F-5.4°C 94% Calm Calm 2.0 mph3.2 kmh 30.14 in1020.7 mb 0.00 in0.0 mm 0.00 in0.0 mm 0.00 in0.0 mm
07:00 AM 23.5°F-4.7°C 22.0°F-5.6°C 94% Calm Calm 2.0 mph3.2 kmh 30.14 in1020.7 mb 0.00 in0.0 mm 0.00 in0.0 mm 0.00 in0.0 mm
06:58 AM 23.5°F-4.7°C 22.0°F-5.6°C 94% Calm Calm 2.0 mph3.2 kmh 30.14 in1020.7 mb 0.00 in0.0 mm 0.00 in0.0 mm 0.00 in0.0 mm
06:56 AM 23.4°F-4.8°C 21.9°F-5.6°C 94% Calm Calm 2.0 mph3.2 kmh 30.14 in1020.7 mb 0.00 in0.0 mm 0.00 in0.0 mm 0.00 in0.0 mm
06:54 AM 23.3°F-4.8°C 21.8°F-5.7°C 94% Calm Calm 2.0 mph3.2 kmh 30.14 in1020.7 mb 0.00 in0.0 mm 0.00 in0.0 mm 0.00 in0.0 mm
06:52 AM 23.3°F-4.8°C 21.8°F-5.7°C 94% Calm Calm 1.0 mph1.6 kmh 30.15 in1021.0 mb 0.00 in0.0 mm 0.00 in0.0 mm 0.00 in0.0 mm
06:50 AM 23.3°F-4.8°C 21.8°F-5.7°C 94% Calm Calm -- 30.15 in1021.0 mb 0.00 in0.0 mm 0.00 in0.0 mm 0.00 in0.0 mm
06:48 AM 23.3°F-4.8°C 21.8°F-5.7°C 94% Calm Calm -- 30.15 in1021.0 mb 0.00 in0.0 mm 0.00 in0.0 mm 0.00 in0.0 mm
06:46 AM 23.3°F-4.8°C 21.8°F-5.7°C 94% Calm Calm -- 30.15 in1021.0 mb 0.00 in0.0 mm 0.00 in0.0 mm 0.00 in0.0 mm
06:44 AM 23.4°F-4.8°C 21.9°F-5.6°C 94% Calm Calm -- 30.15 in1021.0 mb 0.00 in0.0 mm 0.00 in0.0 mm 0.00 in0.0 mm
06:42 AM 23.4°F-4.8°C 21.9°F-5.6°C 94% Calm Calm -- 30.15 in1021.0 mb 0.00 in0.0 mm 0.00 in0.0 mm 0.00 in0.0 mm
06:40 AM 23.4°F-4.8°C 21.9°F-5.6°C 94% Calm Calm -- 30.15 in1021.0 mb 0.00 in0.0 mm 0.00 in0.0 mm 0.00 in0.0 mm
06:38 AM 23.4°F-4.8°C 21.9°F-5.6°C 94% Calm Calm -- 30.16 in1021.3 mb 0.00 in0.0 mm 0.00 in0.0 mm 0.00 in0.0 mm
06:36 AM 23.4°F-4.8°C 21.9°F-5.6°C 94% Calm Calm -- 30.16 in1021.3 mb 0.00 in0.0 mm 0.00 in0.0 mm 0.00 in0.0 mm
06:34 AM 23.4°F-4.8°C 21.9°F-5.6°C 94% Calm Calm -- 30.16 in1021.3 mb 0.00 in0.0 mm 0.00 in0.0 mm 0.00 in0.0 mm
06:32 AM 23.4°F-4.8°C 21.9°F-5.6°C 94% Calm Calm -- 30.16 in1021.3 mb 0.00 in0.0 mm 0.00 in0.0 mm 0.00 in0.0 mm
06:30 AM 23.4°F-4.8°C 21.9°F-5.6°C 94% Calm Calm -- 30.16 in1021.3 mb 0.00 in0.0 mm 0.00 in0.0 mm 0.00 in0.0 mm
06:28 AM 23.4°F-4.8°C 21.9°F-5.6°C 94% Calm Calm -- 30.16 in1021.3 mb 0.00 in0.0 mm 0.00 in0.0 mm 0.00 in0.0 mm
06:26 AM 23.3°F-4.8°C 21.8°F-5.7°C 94% Calm Calm -- 30.16 in1021.3 mb 0.00 in0.0 mm 0.00 in0.0 mm 0.00 in0.0 mm
06:24 AM 23.3°F-4.8°C 21.8°F-5.7°C 94% Calm Calm -- 30.16 in1021.3 mb 0.00 in0.0 mm 0.00 in0.0 mm 0.00 in0.0 mm
06:22 AM 23.3°F-4.8°C 21.8°F-5.7°C 94% Calm Calm -- 30.16 in1021.3 mb 0.00 in0.0 mm 0.00 in0.0 mm 0.00 in0.0 mm
06:20 AM 23.2°F-4.9°C 21.7°F-5.7°C 94% Calm Calm -- 30.16 in1021.3 mb 0.00 in0.0 mm 0.00 in0.0 mm 0.00 in0.0 mm
06:18 AM 23.2°F-4.9°C 21.7°F-5.7°C 94% Calm Calm -- 30.16 in1021.3 mb 0.00 in0.0 mm 0.00 in0.0 mm 0.00 in0.0 mm
06:16 AM 23.1°F-4.9°C 21.6°F-5.8°C 94% Calm Calm -- 30.16 in1021.3 mb 0.00 in0.0 mm 0.00 in0.0 mm 0.00 in0.0 mm
06:14 AM 23.1°F-4.9°C 21.6°F-5.8°C 94% Calm Calm -- 30.16 in1021.3 mb 0.00 in0.0 mm 0.00 in0.0 mm 0.00 in0.0 mm
06:12 AM 23.2°F-4.9°C 21.7°F-5.7°C 94% Calm Calm -- 30.16 in1021.3 mb 0.00 in0.0 mm 0.00 in0.0 mm 0.00 in0.0 mm
06:10 AM 23.2°F-4.9°C 21.7°F-5.7°C 94% Calm Calm -- 30.16 in1021.3 mb 0.00 in0.0 mm 0.00 in0.0 mm 0.00 in0.0 mm
06:08 AM 23.3°F-4.8°C 21.8°F-5.7°C 94% Calm Calm -- 30.16 in1021.3 mb 0.00 in0.0 mm 0.00 in0.0 mm 0.00 in0.0 mm
06:06 AM 23.4°F-4.8°C 21.9°F-5.6°C 94% Calm Calm -- 30.17 in1021.7 mb 0.00 in0.0 mm 0.00 in0.0 mm 0.00 in0.0 mm
06:04 AM 23.5°F-4.7°C 22.0°F-5.6°C 94% Calm Calm -- 30.17 in1021.7 mb 0.00 in0.0 mm 0.00 in0.0 mm 0.00 in0.0 mm
06:02 AM 23.6°F-4.7°C 22.1°F-5.5°C 94% Calm Calm -- 30.17 in1021.7 mb 0.00 in0.0 mm 0.00 in0.0 mm 0.00 in0.0 mm
06:00 AM 23.7°F-4.6°C 22.2°F-5.4°C 94% Calm Calm -- 30.17 in1021.7 mb 0.00 in0.0 mm 0.00 in0.0 mm 0.00 in0.0 mm
05:58 AM 23.8°F-4.6°C 22.3°F-5.4°C 94% Calm Calm -- 30.17 in1021.7 mb 0.00 in0.0 mm 0.00 in0.0 mm 0.00 in0.0 mm
05:56 AM 23.9°F-4.5°C 22.4°F-5.3°C 94% Calm Calm -- 30.17 in1021.7 mb 0.00 in0.0 mm 0.00 in0.0 mm 0.00 in0.0 mm
05:54 AM 24.0°F-4.4°C 22.5°F-5.3°C 94% Calm Calm -- 30.16 in1021.3 mb 0.00 in0.0 mm 0.00 in0.0 mm 0.00 in0.0 mm
05:52 AM 24.1°F-4.4°C 22.6°F-5.2°C 94% Calm Calm -- 30.17 in1021.7 mb 0.00 in0.0 mm 0.00 in0.0 mm 0.00 in0.0 mm
05:50 AM 24.2°F-4.3°C 22.7°F-5.2°C 94% Calm Calm -- 30.17 in1021.7 mb 0.00 in0.0 mm 0.00 in0.0 mm 0.00 in0.0 mm
05:48 AM 24.3°F-4.3°C 22.8°F-5.1°C 94% Calm Calm -- 30.17 in1021.7 mb 0.00 in0.0 mm 0.00 in0.0 mm 0.00 in0.0 mm
05:46 AM 24.4°F-4.2°C 22.9°F-5.1°C 94% Calm Calm 2.0 mph3.2 kmh 30.17 in1021.7 mb 0.00 in0.0 mm 0.00 in0.0 mm 0.00 in0.0 mm
05:44 AM 24.4°F-4.2°C 22.9°F-5.1°C 94% Calm Calm 2.0 mph3.2 kmh 30.17 in1021.7 mb 0.00 in0.0 mm 0.00 in0.0 mm 0.00 in0.0 mm
05:42 AM 24.4°F-4.2°C 22.9°F-5.1°C 94% Calm Calm 2.0 mph3.2 kmh 30.17 in1021.7 mb 0.00 in0.0 mm 0.00 in0.0 mm 0.00 in0.0 mm
05:40 AM 24.4°F-4.2°C 22.9°F-5.1°C 94% Calm Calm 2.0 mph3.2 kmh 30.17 in1021.7 mb 0.00 in0.0 mm 0.00 in0.0 mm 0.00 in0.0 mm
05:38 AM 24.3°F-4.3°C 22.8°F-5.1°C 94% Calm Calm 2.0 mph3.2 kmh 30.16 in1021.3 mb 0.00 in0.0 mm 0.00 in0.0 mm 0.00 in0.0 mm
05:36 AM 24.3°F-4.3°C 22.8°F-5.1°C 94% Calm Calm 1.0 mph1.6 kmh 30.16 in1021.3 mb 0.00 in0.0 mm 0.00 in0.0 mm 0.00 in0.0 mm
05:34 AM 24.2°F-4.3°C 22.7°F-5.2°C 94% Calm Calm -- 30.17 in1021.7 mb 0.00 in0.0 mm 0.00 in0.0 mm 0.00 in0.0 mm
05:32 AM 24.2°F-4.3°C 22.7°F-5.2°C 94% Calm Calm -- 30.17 in1021.7 mb 0.00 in0.0 mm 0.00 in0.0 mm 0.00 in0.0 mm
05:30 AM 24.2°F-4.3°C 22.7°F-5.2°C 94% Calm Calm -- 30.17 in1021.7 mb 0.00 in0.0 mm 0.00 in0.0 mm 0.00 in0.0 mm
05:28 AM 24.2°F-4.3°C 22.7°F-5.2°C 94% Calm Calm -- 30.17 in1021.7 mb 0.00 in0.0 mm 0.00 in0.0 mm 0.00 in0.0 mm
05:26 AM 24.2°F-4.3°C 22.7°F-5.2°C 94% Calm Calm -- 30.17 in1021.7 mb 0.00 in0.0 mm 0.00 in0.0 mm 0.00 in0.0 mm
05:24 AM 24.1°F-4.4°C 22.6°F-5.2°C 94% Calm Calm -- 30.17 in1021.7 mb 0.00 in0.0 mm 0.00 in0.0 mm 0.00 in0.0 mm
05:22 AM 24.1°F-4.4°C 22.6°F-5.2°C 94% Calm Calm -- 30.17 in1021.7 mb 0.00 in0.0 mm 0.00 in0.0 mm 0.00 in0.0 mm
05:20 AM 24.0°F-4.4°C 22.5°F-5.3°C 94% Calm Calm -- 30.17 in1021.7 mb 0.00 in0.0 mm 0.00 in0.0 mm 0.00 in0.0 mm
05:18 AM 24.0°F-4.4°C 22.5°F-5.3°C 94% Calm Calm -- 30.18 in1022.0 mb 0.00 in0.0 mm 0.00 in0.0 mm 0.00 in0.0 mm
05:16 AM 24.0°F-4.4°C 22.3°F-5.4°C 93% Calm Calm -- 30.18 in1022.0 mb 0.00 in0.0 mm 0.00 in0.0 mm 0.00 in0.0 mm
05:14 AM 24.1°F-4.4°C 22.4°F-5.3°C 93% Calm Calm 1.0 mph1.6 kmh 30.18 in1022.0 mb 0.00 in0.0 mm 0.00 in0.0 mm 0.00 in0.0 mm
05:12 AM 24.2°F-4.3°C 22.5°F-5.3°C 93% Calm Calm 1.0 mph1.6 kmh 30.18 in1022.0 mb 0.00 in0.0 mm 0.00 in0.0 mm 0.00 in0.0 mm
05:10 AM 24.3°F-4.3°C 22.6°F-5.2°C 93% Calm Calm 1.0 mph1.6 kmh 30.18 in1022.0 mb 0.00 in0.0 mm 0.00 in0.0 mm 0.00 in0.0 mm
05:08 AM 24.4°F-4.2°C 22.9°F-5.1°C 94% Calm Calm 1.0 mph1.6 kmh 30.18 in1022.0 mb 0.00 in0.0 mm 0.00 in0.0 mm 0.00 in0.0 mm
05:06 AM 24.5°F-4.2°C 23.0°F-5.0°C 94% Calm Calm 1.0 mph1.6 kmh 30.18 in1022.0 mb 0.00 in0.0 mm 0.00 in0.0 mm 0.00 in0.0 mm
05:04 AM 24.6°F-4.1°C 23.1°F-4.9°C 94% Calm Calm -- 30.18 in1022.0 mb 0.00 in0.0 mm 0.00 in0.0 mm 0.00 in0.0 mm
05:02 AM 24.7°F-4.1°C 23.2°F-4.9°C 94% Calm Calm -- 30.18 in1022.0 mb 0.00 in0.0 mm 0.00 in0.0 mm 0.00 in0.0 mm
05:00 AM 24.8°F-4.0°C 23.3°F-4.8°C 94% Calm Calm -- 30.17 in1021.7 mb 0.00 in0.0 mm 0.00 in0.0 mm 0.00 in0.0 mm
04:58 AM 24.8°F-4.0°C 23.3°F-4.8°C 94% Calm Calm -- 30.18 in1022.0 mb 0.00 in0.0 mm 0.00 in0.0 mm 0.00 in0.0 mm
04:56 AM 24.9°F-3.9°C 23.4°F-4.8°C 94% Calm Calm -- 30.18 in1022.0 mb 0.00 in0.0 mm 0.00 in0.0 mm 0.00 in0.0 mm
04:54 AM 24.9°F-3.9°C 23.4°F-4.8°C 94% Calm Calm 1.0 mph1.6 kmh 30.18 in1022.0 mb 0.00 in0.0 mm 0.00 in0.0 mm 0.00 in0.0 mm
04:52 AM 24.9°F-3.9°C 23.4°F-4.8°C 94% Calm Calm 1.0 mph1.6 kmh 30.18 in1022.0 mb 0.00 in0.0 mm 0.00 in0.0 mm 0.00 in0.0 mm
04:50 AM 24.9°F-3.9°C 23.4°F-4.8°C 94% Calm Calm 1.0 mph1.6 kmh 30.18 in1022.0 mb 0.00 in0.0 mm 0.00 in0.0 mm 0.00 in0.0 mm
04:48 AM 24.9°F-3.9°C 23.4°F-4.8°C 94% Calm Calm 1.0 mph1.6 kmh 30.18 in1022.0 mb 0.00 in0.0 mm 0.00 in0.0 mm 0.00 in0.0 mm
04:46 AM 24.9°F-3.9°C 23.4°F-4.8°C 94% Calm Calm 1.0 mph1.6 kmh 30.18 in1022.0 mb 0.00 in0.0 mm 0.00 in0.0 mm 0.00 in0.0 mm
04:44 AM 24.9°F-3.9°C 23.4°F-4.8°C 94% Calm Calm 1.0 mph1.6 kmh 30.18 in1022.0 mb 0.00 in0.0 mm 0.00 in0.0 mm 0.00 in0.0 mm
04:42 AM 24.9°F-3.9°C 23.4°F-4.8°C 94% Calm Calm 2.0 mph3.2 kmh 30.18 in1022.0 mb 0.00 in0.0 mm 0.00 in0.0 mm 0.00 in0.0 mm
04:40 AM 24.9°F-3.9°C 23.4°F-4.8°C 94% Calm Calm 2.0 mph3.2 kmh 30.18 in1022.0 mb 0.00 in0.0 mm 0.00 in0.0 mm 0.00 in0.0 mm
04:38 AM 24.9°F-3.9°C 23.4°F-4.8°C 94% 1.0 mph ENE1.6 kmh ENE 2.0 mph3.2 kmh 30.18 in1022.0 mb 0.00 in0.0 mm 0.00 in0.0 mm 0.00 in0.0 mm
04:36 AM 24.9°F-3.9°C 23.4°F-4.8°C 94% 1.0 mph ENE1.6 kmh ENE 2.0 mph3.2 kmh 30.18 in1022.0 mb 0.00 in0.0 mm 0.00 in0.0 mm 0.00 in0.0 mm
04:34 AM 24.9°F-3.9°C 23.4°F-4.8°C 94% 1.0 mph ENE1.6 kmh ENE 2.0 mph3.2 kmh 30.18 in1022.0 mb 0.00 in0.0 mm 0.00 in0.0 mm 0.00 in0.0 mm
04:32 AM 24.9°F-3.9°C 23.4°F-4.8°C 94% Calm Calm 2.0 mph3.2 kmh 30.18 in1022.0 mb 0.00 in0.0 mm 0.00 in0.0 mm 0.00 in0.0 mm
04:30 AM 25.0°F-3.9°C 23.5°F-4.7°C 94% Calm Calm 2.0 mph3.2 kmh 30.18 in1022.0 mb 0.00 in0.0 mm 0.00 in0.0 mm 0.00 in0.0 mm
04:28 AM 24.9°F-3.9°C 23.4°F-4.8°C 94% Calm Calm 2.0 mph3.2 kmh 30.18 in1022.0 mb 0.00 in0.0 mm 0.00 in0.0 mm 0.00 in0.0 mm
04:26 AM 24.9°F-3.9°C 23.4°F-4.8°C 94% Calm Calm 1.0 mph1.6 kmh 30.18 in1022.0 mb 0.00 in0.0 mm 0.00 in0.0 mm 0.00 in0.0 mm
04:24 AM 25.0°F-3.9°C 23.3°F-4.8°C 93% Calm Calm 1.0 mph1.6 kmh 30.18 in1022.0 mb 0.00 in0.0 mm 0.00 in0.0 mm 0.00 in0.0 mm
04:22 AM 25.0°F-3.9°C 23.5°F-4.7°C 94% Calm Calm 1.0 mph1.6 kmh 30.18 in1022.0 mb 0.00 in0.0 mm 0.00 in0.0 mm 0.00 in0.0 mm
04:20 AM 25.0°F-3.9°C 23.5°F-4.7°C 94% Calm Calm 1.0 mph1.6 kmh 30.19 in1022.4 mb 0.00 in0.0 mm 0.00 in0.0 mm 0.00 in0.0 mm
04:18 AM 25.1°F-3.8°C 23.6°F-4.7°C 94% Calm Calm 1.0 mph1.6 kmh 30.19 in1022.4 mb 0.00 in0.0 mm 0.00 in0.0 mm 0.00 in0.0 mm
04:16 AM 25.1°F-3.8°C 23.6°F-4.7°C 94% Calm Calm -- 30.19 in1022.4 mb 0.00 in0.0 mm 0.00 in0.0 mm 0.00 in0.0 mm
04:14 AM 25.2°F-3.8°C 23.7°F-4.6°C 94% Calm Calm -- 30.19 in1022.4 mb 0.00 in0.0 mm 0.00 in0.0 mm 0.00 in0.0 mm
04:12 AM 25.2°F-3.8°C 23.7°F-4.6°C 94% Calm Calm 1.0 mph1.6 kmh 30.19 in1022.4 mb 0.00 in0.0 mm 0.00 in0.0 mm 0.00 in0.0 mm
04:10 AM 25.2°F-3.8°C 23.7°F-4.6°C 94% Calm Calm 1.0 mph1.6 kmh 30.18 in1022.0 mb 0.00 in0.0 mm 0.00 in0.0 mm 0.00 in0.0 mm
04:08 AM 25.2°F-3.8°C 23.7°F-4.6°C 94% Calm Calm 2.0 mph3.2 kmh 30.18 in1022.0 mb 0.00 in0.0 mm 0.00 in0.0 mm 0.00 in0.0 mm
04:06 AM 25.2°F-3.8°C 23.5°F-4.7°C 93% Calm Calm 2.0 mph3.2 kmh 30.18 in1022.0 mb 0.00 in0.0 mm 0.00 in0.0 mm 0.00 in0.0 mm
04:04 AM 25.2°F-3.8°C 23.5°F-4.7°C 93% Calm Calm 2.0 mph3.2 kmh 30.18 in1022.0 mb 0.00 in0.0 mm 0.00 in0.0 mm 0.00 in0.0 mm
04:02 AM 25.3°F-3.7°C 23.6°F-4.7°C 93% 1.0 mph ENE1.6 kmh ENE 2.0 mph3.2 kmh 30.18 in1022.0 mb 0.00 in0.0 mm 0.00 in0.0 mm 0.00 in0.0 mm
04:00 AM 25.3°F-3.7°C 23.8°F-4.6°C 94% 1.0 mph ENE1.6 kmh ENE 2.0 mph3.2 kmh 30.18 in1022.0 mb 0.00 in0.0 mm 0.00 in0.0 mm 0.00 in0.0 mm
03:58 AM 25.4°F-3.7°C 23.7°F-4.6°C 93% Calm Calm 2.0 mph3.2 kmh 30.18 in1022.0 mb 0.00 in0.0 mm 0.00 in0.0 mm 0.00 in0.0 mm
03:56 AM 25.4°F-3.7°C 23.9°F-4.5°C 94% Calm Calm 2.0 mph3.2 kmh 30.19 in1022.4 mb 0.00 in0.0 mm 0.00 in0.0 mm 0.00 in0.0 mm
03:54 AM 25.4°F-3.7°C 23.9°F-4.5°C 94% Calm Calm 2.0 mph3.2 kmh 30.19 in1022.4 mb 0.00 in0.0 mm 0.00 in0.0 mm 0.00 in0.0 mm
03:52 AM 25.4°F-3.7°C 23.7°F-4.6°C 93% Calm Calm 2.0 mph3.2 kmh 30.19 in1022.4 mb 0.00 in0.0 mm 0.00 in0.0 mm 0.00 in0.0 mm
03:50 AM 25.4°F-3.7°C 23.7°F-4.6°C 93% Calm Calm 2.0 mph3.2 kmh 30.19 in1022.4 mb 0.00 in0.0 mm 0.00 in0.0 mm 0.00 in0.0 mm
03:48 AM 25.5°F-3.6°C 23.8°F-4.6°C 93% Calm Calm 2.0 mph3.2 kmh 30.20 in1022.7 mb 0.00 in0.0 mm 0.00 in0.0 mm 0.00 in0.0 mm
03:46 AM 25.6°F-3.6°C 24.1°F-4.4°C 94% Calm Calm 2.0 mph3.2 kmh 30.20 in1022.7 mb 0.00 in0.0 mm 0.00 in0.0 mm 0.00 in0.0 mm
03:44 AM 25.6°F-3.6°C 24.1°F-4.4°C 94% Calm Calm 2.0 mph3.2 kmh 30.19 in1022.4 mb 0.00 in0.0 mm 0.00 in0.0 mm 0.00 in0.0 mm
03:42 AM 25.6°F-3.6°C 24.1°F-4.4°C 94% Calm Calm 2.0 mph3.2 kmh 30.19 in1022.4 mb 0.00 in0.0 mm 0.00 in0.0 mm 0.00 in0.0 mm
03:40 AM 25.6°F-3.6°C 24.1°F-4.4°C 94% Calm Calm 2.0 mph3.2 kmh 30.19 in1022.4 mb 0.00 in0.0 mm 0.00 in0.0 mm 0.00 in0.0 mm
03:38 AM 25.6°F-3.6°C 24.1°F-4.4°C 94% Calm Calm 2.0 mph3.2 kmh 30.20 in1022.7 mb 0.00 in0.0 mm 0.00 in0.0 mm 0.00 in0.0 mm
03:36 AM 25.6°F-3.6°C 24.1°F-4.4°C 94% Calm Calm 2.0 mph3.2 kmh 30.20 in1022.7 mb 0.00 in0.0 mm 0.00 in0.0 mm 0.00 in0.0 mm
03:34 AM 25.6°F-3.6°C 23.9°F-4.5°C 93% Calm Calm 2.0 mph3.2 kmh 30.20 in1022.7 mb 0.00 in0.0 mm 0.00 in0.0 mm 0.00 in0.0 mm
03:32 AM 25.5°F-3.6°C 23.8°F-4.6°C 93% Calm Calm 1.0 mph1.6 kmh 30.20 in1022.7 mb 0.00 in0.0 mm 0.00 in0.0 mm 0.00 in0.0 mm
03:30 AM 25.6°F-3.6°C 23.9°F-4.5°C 93% Calm Calm -- 30.20 in1022.7 mb 0.00 in0.0 mm 0.00 in0.0 mm 0.00 in0.0 mm
03:28 AM 25.6°F-3.6°C 23.9°F-4.5°C 93% Calm Calm -- 30.20 in1022.7 mb 0.00 in0.0 mm 0.00 in0.0 mm 0.00 in0.0 mm
03:26 AM 25.6°F-3.6°C 23.9°F-4.5°C 93% Calm Calm -- 30.20 in1022.7 mb 0.00 in0.0 mm 0.00 in0.0 mm 0.00 in0.0 mm
03:24 AM 25.7°F-3.5°C 24.0°F-4.4°C 93% Calm Calm -- 30.20 in1022.7 mb 0.00 in0.0 mm 0.00 in0.0 mm 0.00 in0.0 mm
03:22 AM 25.7°F-3.5°C 24.0°F-4.4°C 93% Calm Calm -- 30.20 in1022.7 mb 0.00 in0.0 mm 0.00 in0.0 mm 0.00 in0.0 mm
03:20 AM 25.7°F-3.5°C 24.0°F-4.4°C 93% Calm Calm -- 30.20 in1022.7 mb 0.00 in0.0 mm 0.00 in0.0 mm 0.00 in0.0 mm
03:18 AM 25.7°F-3.5°C 24.0°F-4.4°C 93% Calm Calm -- 30.20 in1022.7 mb 0.00 in0.0 mm 0.00 in0.0 mm 0.00 in0.0 mm
03:16 AM 25.7°F-3.5°C 24.0°F-4.4°C 93% Calm Calm -- 30.20 in1022.7 mb 0.00 in0.0 mm 0.00 in0.0 mm 0.00 in0.0 mm
03:14 AM 25.7°F-3.5°C 24.0°F-4.4°C 93% Calm Calm -- 30.20 in1022.7 mb 0.00 in0.0 mm 0.00 in0.0 mm 0.00 in0.0 mm
03:12 AM 25.7°F-3.5°C 24.0°F-4.4°C 93% Calm Calm -- 30.20 in1022.7 mb 0.00 in0.0 mm 0.00 in0.0 mm 0.00 in0.0 mm
03:10 AM 25.7°F-3.5°C 24.0°F-4.4°C 93% Calm Calm -- 30.20 in1022.7 mb 0.00 in0.0 mm 0.00 in0.0 mm 0.00 in0.0 mm
03:08 AM 25.7°F-3.5°C 24.0°F-4.4°C 93% Calm Calm -- 30.20 in1022.7 mb 0.00 in0.0 mm 0.00 in0.0 mm 0.00 in0.0 mm
03:06 AM 25.7°F-3.5°C 24.0°F-4.4°C 93% Calm Calm -- 30.20 in1022.7 mb 0.00 in0.0 mm 0.00 in0.0 mm 0.00 in0.0 mm
03:04 AM 25.8°F-3.4°C 24.1°F-4.4°C 93% Calm Calm -- 30.20 in1022.7 mb 0.00 in0.0 mm 0.00 in0.0 mm 0.00 in0.0 mm
03:02 AM 25.8°F-3.4°C 24.1°F-4.4°C 93% Calm Calm -- 30.20 in1022.7 mb 0.00 in0.0 mm 0.00 in0.0 mm 0.00 in0.0 mm
03:00 AM 25.8°F-3.4°C 24.1°F-4.4°C 93% Calm Calm -- 30.21 in1023.0 mb 0.00 in0.0 mm 0.00 in0.0 mm 0.00 in0.0 mm
02:58 AM 25.8°F-3.4°C 24.1°F-4.4°C 93% Calm Calm -- 30.21 in1023.0 mb 0.00 in0.0 mm 0.00 in0.0 mm 0.00 in0.0 mm
02:56 AM 25.9°F-3.4°C 24.2°F-4.3°C 93% Calm Calm -- 30.21 in1023.0 mb 0.00 in0.0 mm 0.00 in0.0 mm 0.00 in0.0 mm
02:54 AM 26.0°F-3.3°C 24.3°F-4.3°C 93% Calm Calm -- 30.21 in1023.0 mb 0.00 in0.0 mm 0.00 in0.0 mm 0.00 in0.0 mm
02:52 AM 26.1°F-3.3°C 24.4°F-4.2°C 93% Calm Calm -- 30.21 in1023.0 mb 0.00 in0.0 mm 0.00 in0.0 mm 0.00 in0.0 mm
02:50 AM 26.2°F-3.2°C 24.5°F-4.2°C 93% Calm Calm -- 30.21 in1023.0 mb 0.00 in0.0 mm 0.00 in0.0 mm 0.00 in0.0 mm
02:48 AM 26.2°F-3.2°C 24.5°F-4.2°C 93% Calm Calm -- 30.21 in1023.0 mb 0.00 in0.0 mm 0.00 in0.0 mm 0.00 in0.0 mm
02:46 AM 26.3°F-3.2°C 24.6°F-4.1°C 93% Calm Calm -- 30.21 in1023.0 mb 0.00 in0.0 mm 0.00 in0.0 mm 0.00 in0.0 mm
02:44 AM 26.3°F-3.2°C 24.6°F-4.1°C 93% Calm Calm 2.0 mph3.2 kmh 30.21 in1023.0 mb 0.00 in0.0 mm 0.00 in0.0 mm 0.00 in0.0 mm
02:42 AM 26.3°F-3.2°C 24.6°F-4.1°C 93% Calm Calm 2.0 mph3.2 kmh 30.21 in1023.0 mb 0.00 in0.0 mm 0.00 in0.0 mm 0.00 in0.0 mm
02:40 AM 26.4°F-3.1°C 24.7°F-4.1°C 93% 1.0 mph ENE1.6 kmh ENE 2.0 mph3.2 kmh 30.22 in1023.4 mb 0.00 in0.0 mm 0.00 in0.0 mm 0.00 in0.0 mm
02:38 AM 26.3°F-3.2°C 24.6°F-4.1°C 93% 1.0 mph ENE1.6 kmh ENE 2.0 mph3.2 kmh 30.21 in1023.0 mb 0.00 in0.0 mm 0.00 in0.0 mm 0.00 in0.0 mm
02:36 AM 26.3°F-3.2°C 24.6°F-4.1°C 93% 1.0 mph ENE1.6 kmh ENE 2.0 mph3.2 kmh 30.21 in1023.0 mb 0.00 in0.0 mm 0.00 in0.0 mm 0.00 in0.0 mm
02:34 AM 26.3°F-3.2°C 24.6°F-4.1°C 93% 1.0 mph ENE1.6 kmh ENE 2.0 mph3.2 kmh 30.21 in1023.0 mb 0.00 in0.0 mm 0.00 in0.0 mm 0.00 in0.0 mm
02:32 AM 26.2°F-3.2°C 24.5°F-4.2°C 93% Calm Calm 2.0 mph3.2 kmh 30.22 in1023.4 mb 0.00 in0.0 mm 0.00 in0.0 mm 0.00 in0.0 mm
02:30 AM 26.2°F-3.2°C 24.5°F-4.2°C 93% Calm Calm 1.0 mph1.6 kmh 30.21 in1023.0 mb 0.00 in0.0 mm 0.00 in0.0 mm 0.00 in0.0 mm
02:28 AM 26.2°F-3.2°C 24.5°F-4.2°C 93% Calm Calm 1.0 mph1.6 kmh 30.22 in1023.4 mb 0.00 in0.0 mm 0.00 in0.0 mm 0.00 in0.0 mm
02:26 AM 26.2°F-3.2°C 24.5°F-4.2°C 93% Calm Calm 1.0 mph1.6 kmh 30.22 in1023.4 mb 0.00 in0.0 mm 0.00 in0.0 mm 0.00 in0.0 mm
02:24 AM 26.2°F-3.2°C 24.2°F-4.3°C 92% Calm Calm -- 30.22 in1023.4 mb 0.00 in0.0 mm 0.00 in0.0 mm 0.00 in0.0 mm
02:22 AM 26.2°F-3.2°C 24.2°F-4.3°C 92% Calm Calm -- 30.23 in1023.7 mb 0.00 in0.0 mm 0.00 in0.0 mm 0.00 in0.0 mm
02:20 AM 26.2°F-3.2°C 24.2°F-4.3°C 92% Calm Calm -- 30.23 in1023.7 mb 0.00 in0.0 mm 0.00 in0.0 mm 0.00 in0.0 mm
02:18 AM 26.3°F-3.2°C 24.3°F-4.3°C 92% Calm Calm -- 30.23 in1023.7 mb 0.00 in0.0 mm 0.00 in0.0 mm 0.00 in0.0 mm
02:16 AM 26.4°F-3.1°C 24.4°F-4.2°C 92% Calm Calm -- 30.23 in1023.7 mb 0.00 in0.0 mm 0.00 in0.0 mm 0.00 in0.0 mm
02:14 AM 26.5°F-3.1°C 24.5°F-4.2°C 92% Calm Calm -- 30.23 in1023.7 mb 0.00 in0.0 mm 0.00 in0.0 mm 0.00 in0.0 mm
02:12 AM 26.5°F-3.1°C 24.8°F-4.0°C 93% Calm Calm -- 30.23 in1023.7 mb 0.00 in0.0 mm 0.00 in0.0 mm 0.00 in0.0 mm
02:10 AM 26.6°F-3.0°C 24.8°F-4.0°C 93% Calm Calm -- 30.23 in1023.7 mb 0.00 in0.0 mm 0.00 in0.0 mm 0.00 in0.0 mm
02:08 AM 26.6°F-3.0°C 24.6°F-4.1°C 92% Calm Calm -- 30.23 in1023.7 mb 0.00 in0.0 mm 0.00 in0.0 mm 0.00 in0.0 mm
02:06 AM 26.6°F-3.0°C 24.6°F-4.1°C 92% Calm Calm -- 30.23 in1023.7 mb 0.00 in0.0 mm 0.00 in0.0 mm 0.00 in0.0 mm
02:04 AM 26.6°F-3.0°C 24.6°F-4.1°C 92% Calm Calm -- 30.23 in1023.7 mb 0.00 in0.0 mm 0.00 in0.0 mm 0.00 in0.0 mm
02:02 AM 26.7°F-2.9°C 24.7°F-4.1°C 92% Calm Calm -- 30.23 in1023.7 mb 0.00 in0.0 mm 0.00 in0.0 mm 0.00 in0.0 mm
02:00 AM 26.8°F-2.9°C 24.8°F-4.0°C 92% Calm Calm -- 30.23 in1023.7 mb 0.00 in0.0 mm 0.00 in0.0 mm 0.00 in0.0 mm
01:58 AM 26.9°F-2.8°C 24.9°F-3.9°C 92% Calm Calm -- 30.23 in1023.7 mb 0.00 in0.0 mm 0.00 in0.0 mm 0.00 in0.0 mm
01:56 AM 27.0°F-2.8°C 25.0°F-3.9°C 92% Calm Calm -- 30.23 in1023.7 mb 0.00 in0.0 mm 0.00 in0.0 mm 0.00 in0.0 mm
01:54 AM 27.0°F-2.8°C 25.0°F-3.9°C 92% Calm Calm -- 30.23 in1023.7 mb 0.00 in0.0 mm 0.00 in0.0 mm 0.00 in0.0 mm
01:52 AM 27.2°F-2.7°C 25.2°F-3.8°C 92% Calm Calm -- 30.23 in1023.7 mb 0.00 in0.0 mm 0.00 in0.0 mm 0.00 in0.0 mm
01:50 AM 27.3°F-2.6°C 25.3°F-3.7°C 92% Calm Calm -- 30.23 in1023.7 mb 0.00 in0.0 mm 0.00 in0.0 mm 0.00 in0.0 mm
01:48 AM 27.4°F-2.6°C 25.4°F-3.7°C 92% Calm Calm -- 30.23 in1023.7 mb 0.00 in0.0 mm 0.00 in0.0 mm 0.00 in0.0 mm
01:46 AM 27.5°F-2.5°C 25.5°F-3.6°C 92% Calm Calm 1.0 mph1.6 kmh 30.23 in1023.7 mb 0.00 in0.0 mm 0.00 in0.0 mm 0.00 in0.0 mm
01:44 AM 27.5°F-2.5°C 25.5°F-3.6°C 92% Calm Calm 2.0 mph3.2 kmh 30.23 in1023.7 mb 0.00 in0.0 mm 0.00 in0.0 mm 0.00 in0.0 mm
01:42 AM 27.5°F-2.5°C 25.5°F-3.6°C 92% Calm Calm 2.0 mph3.2 kmh 30.23 in1023.7 mb 0.00 in0.0 mm 0.00 in0.0 mm 0.00 in0.0 mm
01:40 AM 27.6°F-2.4°C 25.6°F-3.6°C 92% 1.0 mph ENE1.6 kmh ENE 2.0 mph3.2 kmh 30.23 in1023.7 mb 0.00 in0.0 mm 0.00 in0.0 mm 0.00 in0.0 mm
01:38 AM 27.6°F-2.4°C 25.8°F-3.4°C 93% 1.0 mph ENE1.6 kmh ENE 4.0 mph6.4 kmh 30.23 in1023.7 mb 0.00 in0.0 mm 0.00 in0.0 mm 0.00 in0.0 mm
01:36 AM 27.7°F-2.4°C 25.9°F-3.4°C 93% 1.0 mph ENE1.6 kmh ENE 4.0 mph6.4 kmh 30.23 in1023.7 mb 0.00 in0.0 mm 0.00 in0.0 mm 0.00 in0.0 mm
01:34 AM 27.6°F-2.4°C 25.8°F-3.4°C 93% 2.0 mph ENE3.2 kmh ENE 4.0 mph6.4 kmh 30.22 in1023.4 mb 0.00 in0.0 mm 0.00 in0.0 mm 0.00 in0.0 mm
01:32 AM 27.6°F-2.4°C 25.8°F-3.4°C 93% 1.0 mph ENE1.6 kmh ENE 4.0 mph6.4 kmh 30.22 in1023.4 mb 0.00 in0.0 mm 0.00 in0.0 mm 0.00 in0.0 mm
01:30 AM 27.5°F-2.5°C 25.7°F-3.5°C 93% 1.0 mph ENE1.6 kmh ENE 4.0 mph6.4 kmh 30.22 in1023.4 mb 0.00 in0.0 mm 0.00 in0.0 mm 0.00 in0.0 mm
01:28 AM 27.5°F-2.5°C 25.7°F-3.5°C 93% 1.0 mph ENE1.6 kmh ENE 4.0 mph6.4 kmh 30.23 in1023.7 mb 0.00 in0.0 mm 0.00 in0.0 mm 0.00 in0.0 mm
01:26 AM 27.4°F-2.6°C 25.6°F-3.6°C 93% 1.0 mph ENE1.6 kmh ENE 3.0 mph4.8 kmh 30.22 in1023.4 mb 0.00 in0.0 mm 0.00 in0.0 mm 0.00 in0.0 mm
01:24 AM 27.4°F-2.6°C 25.6°F-3.6°C 93% 1.0 mph ENE1.6 kmh ENE 3.0 mph4.8 kmh 30.23 in1023.7 mb 0.00 in0.0 mm 0.00 in0.0 mm 0.00 in0.0 mm
01:22 AM 27.3°F-2.6°C 25.5°F-3.6°C 93% 1.0 mph ENE1.6 kmh ENE 4.0 mph6.4 kmh 30.23 in1023.7 mb 0.00 in0.0 mm 0.00 in0.0 mm 0.00 in0.0 mm
01:20 AM 27.2°F-2.7°C 25.4°F-3.7°C 93% 1.0 mph ENE1.6 kmh ENE 4.0 mph6.4 kmh 30.23 in1023.7 mb 0.00 in0.0 mm 0.00 in0.0 mm 0.00 in0.0 mm
01:18 AM 27.0°F-2.8°C 25.2°F-3.8°C 93% 1.0 mph ENE1.6 kmh ENE 4.0 mph6.4 kmh 30.23 in1023.7 mb 0.00 in0.0 mm 0.00 in0.0 mm 0.00 in0.0 mm
01:16 AM 26.9°F-2.8°C 25.1°F-3.8°C 93% 1.0 mph ENE1.6 kmh ENE 4.0 mph6.4 kmh 30.23 in1023.7 mb 0.00 in0.0 mm 0.00 in0.0 mm 0.00 in0.0 mm
01:14 AM 26.7°F-2.9°C 24.7°F-4.1°C 92% 1.0 mph ENE1.6 kmh ENE 4.0 mph6.4 kmh 30.23 in1023.7 mb 0.00 in0.0 mm 0.00 in0.0 mm 0.00 in0.0 mm
01:12 AM 26.6°F-3.0°C 24.6°F-4.1°C 92% Calm Calm 3.0 mph4.8 kmh 30.23 in1023.7 mb 0.00 in0.0 mm 0.00 in0.0 mm 0.00 in0.0 mm
01:10 AM 26.6°F-3.0°C 24.6°F-4.1°C 92% Calm Calm -- 30.23 in1023.7 mb 0.00 in0.0 mm 0.00 in0.0 mm 0.00 in0.0 mm
01:08 AM 26.7°F-2.9°C 24.7°F-4.1°C 92% Calm Calm -- 30.24 in1024.0 mb 0.00 in0.0 mm 0.00 in0.0 mm 0.00 in0.0 mm
01:06 AM 26.7°F-2.9°C 24.4°F-4.2°C 91% Calm Calm -- 30.24 in1024.0 mb 0.00 in0.0 mm 0.00 in0.0 mm 0.00 in0.0 mm
01:04 AM 26.8°F-2.9°C 24.5°F-4.2°C 91% Calm Calm -- 30.24 in1024.0 mb 0.00 in0.0 mm 0.00 in0.0 mm 0.00 in0.0 mm
01:02 AM 26.9°F-2.8°C 24.6°F-4.1°C 91% Calm Calm -- 30.24 in1024.0 mb 0.00 in0.0 mm 0.00 in0.0 mm 0.00 in0.0 mm
01:00 AM 27.0°F-2.8°C 25.0°F-3.9°C 92% Calm Calm -- 30.24 in1024.0 mb 0.00 in0.0 mm 0.00 in0.0 mm 0.00 in0.0 mm
12:58 AM 27.1°F-2.7°C 25.1°F-3.8°C 92% Calm Calm 1.0 mph1.6 kmh 30.24 in1024.0 mb 0.00 in0.0 mm 0.00 in0.0 mm 0.00 in0.0 mm
12:56 AM 27.1°F-2.7°C 25.1°F-3.8°C 92% Calm Calm 2.0 mph3.2 kmh 30.24 in1024.0 mb 0.00 in0.0 mm 0.00 in0.0 mm 0.00 in0.0 mm
12:54 AM 27.2°F-2.7°C 25.2°F-3.8°C 92% Calm Calm 2.0 mph3.2 kmh 30.24 in1024.0 mb 0.00 in0.0 mm 0.00 in0.0 mm 0.00 in0.0 mm
12:52 AM 27.2°F-2.7°C 25.2°F-3.8°C 92% Calm Calm 2.0 mph3.2 kmh 30.24 in1024.0 mb 0.00 in0.0 mm 0.00 in0.0 mm 0.00 in0.0 mm
12:50 AM 27.2°F-2.7°C 24.9°F-3.9°C 91% Calm Calm 2.0 mph3.2 kmh 30.24 in1024.0 mb 0.00 in0.0 mm 0.00 in0.0 mm 0.00 in0.0 mm
12:48 AM 27.3°F-2.6°C 25.0°F-3.9°C 91% Calm Calm 2.0 mph3.2 kmh 30.24 in1024.0 mb 0.00 in0.0 mm 0.00 in0.0 mm 0.00 in0.0 mm
12:46 AM 27.3°F-2.6°C 25.0°F-3.9°C 91% Calm Calm 2.0 mph3.2 kmh 30.24 in1024.0 mb 0.00 in0.0 mm 0.00 in0.0 mm 0.00 in0.0 mm
12:44 AM 27.4°F-2.6°C 25.1°F-3.8°C 91% Calm Calm 1.0 mph1.6 kmh 30.25 in1024.4 mb 0.00 in0.0 mm 0.00 in0.0 mm 0.00 in0.0 mm
12:42 AM 27.5°F-2.5°C 25.2°F-3.8°C 91% Calm Calm -- 30.25 in1024.4 mb 0.00 in0.0 mm 0.00 in0.0 mm 0.00 in0.0 mm
12:40 AM 27.6°F-2.4°C 25.3°F-3.7°C 91% Calm Calm -- 30.25 in1024.4 mb 0.00 in0.0 mm 0.00 in0.0 mm 0.00 in0.0 mm
12:38 AM 27.7°F-2.4°C 25.4°F-3.7°C 91% Calm Calm -- 30.25 in1024.4 mb 0.00 in0.0 mm 0.00 in0.0 mm 0.00 in0.0 mm
12:36 AM 27.8°F-2.3°C 25.5°F-3.6°C 91% Calm Calm -- 30.25 in1024.4 mb 0.00 in0.0 mm 0.00 in0.0 mm 0.00 in0.0 mm
12:34 AM 27.9°F-2.3°C 25.6°F-3.6°C 91% Calm Calm -- 30.25 in1024.4 mb 0.00 in0.0 mm 0.00 in0.0 mm 0.00 in0.0 mm
12:32 AM 28.0°F-2.2°C 25.7°F-3.5°C 91% Calm Calm -- 30.25 in1024.4 mb 0.00 in0.0 mm 0.00 in0.0 mm 0.00 in0.0 mm
12:30 AM 28.0°F-2.2°C 25.7°F-3.5°C 91% Calm Calm -- 30.25 in1024.4 mb 0.00 in0.0 mm 0.00 in0.0 mm 0.00 in0.0 mm
12:28 AM 28.1°F-2.2°C 25.8°F-3.4°C 91% Calm Calm 1.0 mph1.6 kmh 30.25 in1024.4 mb 0.00 in0.0 mm 0.00 in0.0 mm 0.00 in0.0 mm
12:26 AM 28.3°F-2.1°C 26.0°F-3.3°C 91% Calm Calm 1.0 mph1.6 kmh 30.25 in1024.4 mb 0.00 in0.0 mm 0.00 in0.0 mm 0.00 in0.0 mm
12:24 AM 28.3°F-2.1°C 26.0°F-3.3°C 91% Calm Calm 2.0 mph3.2 kmh 30.25 in1024.4 mb 0.00 in0.0 mm 0.00 in0.0 mm 0.00 in0.0 mm
12:22 AM 28.3°F-2.1°C 26.0°F-3.3°C 91% 1.0 mph ENE1.6 kmh ENE 2.0 mph3.2 kmh 30.25 in1024.4 mb 0.00 in0.0 mm 0.00 in0.0 mm 0.00 in0.0 mm
12:20 AM 28.4°F-2.0°C 26.1°F-3.3°C 91% 1.0 mph ENE1.6 kmh ENE 2.0 mph3.2 kmh 30.25 in1024.4 mb 0.00 in0.0 mm 0.00 in0.0 mm 0.00 in0.0 mm
12:18 AM 28.4°F-2.0°C 26.1°F-3.3°C 91% 1.0 mph ENE1.6 kmh ENE 2.0 mph3.2 kmh 30.25 in1024.4 mb 0.00 in0.0 mm 0.00 in0.0 mm 0.00 in0.0 mm
12:16 AM 28.4°F-2.0°C 26.1°F-3.3°C 91% 1.0 mph ENE1.6 kmh ENE 2.0 mph3.2 kmh 30.24 in1024.0 mb 0.00 in0.0 mm 0.00 in0.0 mm 0.00 in0.0 mm
12:14 AM 28.4°F-2.0°C 26.1°F-3.3°C 91% Calm Calm 2.0 mph3.2 kmh 30.25 in1024.4 mb 0.00 in0.0 mm 0.00 in0.0 mm 0.00 in0.0 mm
12:12 AM 28.4°F-2.0°C 26.1°F-3.3°C 91% Calm Calm 2.0 mph3.2 kmh 30.25 in1024.4 mb 0.00 in0.0 mm 0.00 in0.0 mm 0.00 in0.0 mm
12:10 AM 28.5°F-1.9°C 26.2°F-3.2°C 91% 1.0 mph ENE1.6 kmh ENE 3.0 mph4.8 kmh 30.25 in1024.4 mb 0.00 in0.0 mm 0.00 in0.0 mm 0.00 in0.0 mm
12:08 AM 28.5°F-1.9°C 26.2°F-3.2°C 91% 1.0 mph ENE1.6 kmh ENE 3.0 mph4.8 kmh 30.25 in1024.4 mb 0.00 in0.0 mm 0.00 in0.0 mm 0.00 in0.0 mm
12:06 AM 28.6°F-1.9°C 26.3°F-3.2°C 91% 1.0 mph ENE1.6 kmh ENE 4.0 mph6.4 kmh 30.25 in1024.4 mb 0.00 in0.0 mm 0.00 in0.0 mm 0.00 in0.0 mm
12:04 AM 28.7°F-1.8°C 26.4°F-3.1°C 91% 1.0 mph ENE1.6 kmh ENE 4.0 mph6.4 kmh 30.24 in1024.0 mb 0.00 in0.0 mm 0.00 in0.0 mm 0.00 in0.0 mm
12:02 AM 28.7°F-1.8°C 26.4°F-3.1°C 91% 1.0 mph ENE1.6 kmh ENE 4.0 mph6.4 kmh 30.25 in1024.4 mb 0.00 in0.0 mm 0.00 in0.0 mm 0.00 in0.0 mm
12:00 AM 28.7°F-1.8°C 26.4°F-3.1°C 91% 1.0 mph ENE1.6 kmh ENE 4.0 mph6.4 kmh 30.25 in1024.4 mb 0.00 in0.0 mm 0.00 in0.0 mm 0.00 in0.0 mm